<?xml version="1.0" encoding="UTF-8" standalone="no" ?>
<gpx xmlns="http://www.topografix.com/GPX/1/1" xmlns:xsi="http://www.w3.org/2001/XMLSchema-instance" xsi:schemaLocation="http://www.topografix.com/GPX/1/1 http://www.topografix.com/GPX/1/1/gpx.xsd" version="1.1" creator="VisuGPX - https://www.visugpx.com">
  <metadata>
    <name>boucle 25km Seillons</name>
    <desc><![CDATA[Boucle sans difficultés techniques, plutôt roulante. Deux montées un peu marquées (la 1ere peu après le départ du Km 1.3 au Km 2, la seconde du Km 15 (épave de la 205) au Km 16 environ). Superbe descente sous les arbres au Km 20: attention à ne pas manquer le chemin non signalé, en bordure de la piste principale, nous démarrerons un cairn la prochaine fois. Pour finir, beau single en descente jusqu'au parking au Km 24.6]]></desc>
  </metadata>
  <trk>
    <name><![CDATA[2020-01-05 08:58]]></name>
    <trkseg>
      <trkpt lat="43.5038" lon="5.88678">
        <ele>207.77</ele>
        <time>2020-01-05T07:58:23Z</time>
      </trkpt>
      <trkpt lat="43.5036" lon="5.88698">
        <ele>237.27</ele>
        <time>2020-01-05T07:58:25Z</time>
      </trkpt>
      <trkpt lat="43.50362" lon="5.88673">
        <ele>251.72</ele>
        <time>2020-01-05T08:03:47Z</time>
      </trkpt>
      <trkpt lat="43.50376" lon="5.88654">
        <ele>253.74</ele>
        <time>2020-01-05T08:03:57Z</time>
      </trkpt>
      <trkpt lat="43.50393" lon="5.8864">
        <ele>256.31</ele>
        <time>2020-01-05T08:04:07Z</time>
      </trkpt>
      <trkpt lat="43.5041" lon="5.8863">
        <ele>258.51</ele>
        <time>2020-01-05T08:04:15Z</time>
      </trkpt>
      <trkpt lat="43.50427" lon="5.88619">
        <ele>260.33</ele>
        <time>2020-01-05T08:04:23Z</time>
      </trkpt>
      <trkpt lat="43.50444" lon="5.88608">
        <ele>261.83</ele>
        <time>2020-01-05T08:04:30Z</time>
      </trkpt>
      <trkpt lat="43.50461" lon="5.88599">
        <ele>263.61</ele>
        <time>2020-01-05T08:04:38Z</time>
      </trkpt>
      <trkpt lat="43.50479" lon="5.88587">
        <ele>264.62</ele>
        <time>2020-01-05T08:04:46Z</time>
      </trkpt>
      <trkpt lat="43.50494" lon="5.88574">
        <ele>265.54</ele>
        <time>2020-01-05T08:04:53Z</time>
      </trkpt>
      <trkpt lat="43.50509" lon="5.88557">
        <ele>265.27</ele>
        <time>2020-01-05T08:05:00Z</time>
      </trkpt>
      <trkpt lat="43.50523" lon="5.8854">
        <ele>265.54</ele>
        <time>2020-01-05T08:05:07Z</time>
      </trkpt>
      <trkpt lat="43.50536" lon="5.88521">
        <ele>266.69</ele>
        <time>2020-01-05T08:05:14Z</time>
      </trkpt>
      <trkpt lat="43.5055" lon="5.88505">
        <ele>264.27</ele>
        <time>2020-01-05T08:05:20Z</time>
      </trkpt>
      <trkpt lat="43.50564" lon="5.88488">
        <ele>263.46</ele>
        <time>2020-01-05T08:05:26Z</time>
      </trkpt>
      <trkpt lat="43.5058" lon="5.88471">
        <ele>263.06</ele>
        <time>2020-01-05T08:05:33Z</time>
      </trkpt>
      <trkpt lat="43.50598" lon="5.88458">
        <ele>261.91</ele>
        <time>2020-01-05T08:05:40Z</time>
      </trkpt>
      <trkpt lat="43.50618" lon="5.88454">
        <ele>263.01</ele>
        <time>2020-01-05T08:05:47Z</time>
      </trkpt>
      <trkpt lat="43.50635" lon="5.88447">
        <ele>264.67</ele>
        <time>2020-01-05T08:05:54Z</time>
      </trkpt>
      <trkpt lat="43.50655" lon="5.8844">
        <ele>267.78</ele>
        <time>2020-01-05T08:06:02Z</time>
      </trkpt>
      <trkpt lat="43.50672" lon="5.88428">
        <ele>270.92</ele>
        <time>2020-01-05T08:06:09Z</time>
      </trkpt>
      <trkpt lat="43.50686" lon="5.88411">
        <ele>270.84</ele>
        <time>2020-01-05T08:06:16Z</time>
      </trkpt>
      <trkpt lat="43.50698" lon="5.8839">
        <ele>273.19</ele>
        <time>2020-01-05T08:06:23Z</time>
      </trkpt>
      <trkpt lat="43.50713" lon="5.88372">
        <ele>273.55</ele>
        <time>2020-01-05T08:06:31Z</time>
      </trkpt>
      <trkpt lat="43.50724" lon="5.8835">
        <ele>274.02</ele>
        <time>2020-01-05T08:06:38Z</time>
      </trkpt>
      <trkpt lat="43.50732" lon="5.88326">
        <ele>276.9</ele>
        <time>2020-01-05T08:06:45Z</time>
      </trkpt>
      <trkpt lat="43.50747" lon="5.88307">
        <ele>281.74</ele>
        <time>2020-01-05T08:06:53Z</time>
      </trkpt>
      <trkpt lat="43.50765" lon="5.88295">
        <ele>285.26</ele>
        <time>2020-01-05T08:07:01Z</time>
      </trkpt>
      <trkpt lat="43.50784" lon="5.88295">
        <ele>287.98</ele>
        <time>2020-01-05T08:07:09Z</time>
      </trkpt>
      <trkpt lat="43.50802" lon="5.88303">
        <ele>289.84</ele>
        <time>2020-01-05T08:07:18Z</time>
      </trkpt>
      <trkpt lat="43.50811" lon="5.88328">
        <ele>292.91</ele>
        <time>2020-01-05T08:07:25Z</time>
      </trkpt>
      <trkpt lat="43.50815" lon="5.88353">
        <ele>291.73</ele>
        <time>2020-01-05T08:07:32Z</time>
      </trkpt>
      <trkpt lat="43.5082" lon="5.8838">
        <ele>288.3</ele>
        <time>2020-01-05T08:07:40Z</time>
      </trkpt>
      <trkpt lat="43.50829" lon="5.88403">
        <ele>287.71</ele>
        <time>2020-01-05T08:07:50Z</time>
      </trkpt>
      <trkpt lat="43.50846" lon="5.88415">
        <ele>288.49</ele>
        <time>2020-01-05T08:07:58Z</time>
      </trkpt>
      <trkpt lat="43.50862" lon="5.88431">
        <ele>288.85</ele>
        <time>2020-01-05T08:08:06Z</time>
      </trkpt>
      <trkpt lat="43.50877" lon="5.88449">
        <ele>290.02</ele>
        <time>2020-01-05T08:08:14Z</time>
      </trkpt>
      <trkpt lat="43.50894" lon="5.88462">
        <ele>290.86</ele>
        <time>2020-01-05T08:08:22Z</time>
      </trkpt>
      <trkpt lat="43.50907" lon="5.88482">
        <ele>291.23</ele>
        <time>2020-01-05T08:08:30Z</time>
      </trkpt>
      <trkpt lat="43.50926" lon="5.88491">
        <ele>293.6</ele>
        <time>2020-01-05T08:08:39Z</time>
      </trkpt>
      <trkpt lat="43.50945" lon="5.88493">
        <ele>297.23</ele>
        <time>2020-01-05T08:08:48Z</time>
      </trkpt>
      <trkpt lat="43.50963" lon="5.88498">
        <ele>298.75</ele>
        <time>2020-01-05T08:08:55Z</time>
      </trkpt>
      <trkpt lat="43.50983" lon="5.88496">
        <ele>299.89</ele>
        <time>2020-01-05T08:09:04Z</time>
      </trkpt>
      <trkpt lat="43.51001" lon="5.88494">
        <ele>305.13</ele>
        <time>2020-01-05T08:09:13Z</time>
      </trkpt>
      <trkpt lat="43.51019" lon="5.88501">
        <ele>313.36</ele>
        <time>2020-01-05T08:09:23Z</time>
      </trkpt>
      <trkpt lat="43.51036" lon="5.88516">
        <ele>320.22</ele>
        <time>2020-01-05T08:09:34Z</time>
      </trkpt>
      <trkpt lat="43.51051" lon="5.88532">
        <ele>322.91</ele>
        <time>2020-01-05T08:09:43Z</time>
      </trkpt>
      <trkpt lat="43.51065" lon="5.88554">
        <ele>322.28</ele>
        <time>2020-01-05T08:09:51Z</time>
      </trkpt>
      <trkpt lat="43.51073" lon="5.88578">
        <ele>320.18</ele>
        <time>2020-01-05T08:09:57Z</time>
      </trkpt>
      <trkpt lat="43.5108" lon="5.88603">
        <ele>317.47</ele>
        <time>2020-01-05T08:10:04Z</time>
      </trkpt>
      <trkpt lat="43.51092" lon="5.88623">
        <ele>307.59</ele>
        <time>2020-01-05T08:10:10Z</time>
      </trkpt>
      <trkpt lat="43.51099" lon="5.88649">
        <ele>301.75</ele>
        <time>2020-01-05T08:10:18Z</time>
      </trkpt>
      <trkpt lat="43.51106" lon="5.88673">
        <ele>299.81</ele>
        <time>2020-01-05T08:10:26Z</time>
      </trkpt>
      <trkpt lat="43.51124" lon="5.88676">
        <ele>302.72</ele>
        <time>2020-01-05T08:10:36Z</time>
      </trkpt>
      <trkpt lat="43.51141" lon="5.88693">
        <ele>306.46</ele>
        <time>2020-01-05T08:10:47Z</time>
      </trkpt>
      <trkpt lat="43.51157" lon="5.88704">
        <ele>309.05</ele>
        <time>2020-01-05T08:10:56Z</time>
      </trkpt>
      <trkpt lat="43.51175" lon="5.88705">
        <ele>312.93</ele>
        <time>2020-01-05T08:11:04Z</time>
      </trkpt>
      <trkpt lat="43.51193" lon="5.88708">
        <ele>319.93</ele>
        <time>2020-01-05T08:11:14Z</time>
      </trkpt>
      <trkpt lat="43.51212" lon="5.88709">
        <ele>324.8</ele>
        <time>2020-01-05T08:11:23Z</time>
      </trkpt>
      <trkpt lat="43.51229" lon="5.88719">
        <ele>322.31</ele>
        <time>2020-01-05T08:11:32Z</time>
      </trkpt>
      <trkpt lat="43.51247" lon="5.8873">
        <ele>324.67</ele>
        <time>2020-01-05T08:11:43Z</time>
      </trkpt>
      <trkpt lat="43.51263" lon="5.88746">
        <ele>325.79</ele>
        <time>2020-01-05T08:11:53Z</time>
      </trkpt>
      <trkpt lat="43.51272" lon="5.88767">
        <ele>325.13</ele>
        <time>2020-01-05T08:12:00Z</time>
      </trkpt>
      <trkpt lat="43.51283" lon="5.88788">
        <ele>323.39</ele>
        <time>2020-01-05T08:12:08Z</time>
      </trkpt>
      <trkpt lat="43.5129" lon="5.88812">
        <ele>324.47</ele>
        <time>2020-01-05T08:12:18Z</time>
      </trkpt>
      <trkpt lat="43.51307" lon="5.88826">
        <ele>329.92</ele>
        <time>2020-01-05T08:12:40Z</time>
      </trkpt>
      <trkpt lat="43.51317" lon="5.88848">
        <ele>329.88</ele>
        <time>2020-01-05T08:12:53Z</time>
      </trkpt>
      <trkpt lat="43.51326" lon="5.8887">
        <ele>327.79</ele>
        <time>2020-01-05T08:13:05Z</time>
      </trkpt>
      <trkpt lat="43.51328" lon="5.88896">
        <ele>326</ele>
        <time>2020-01-05T08:13:19Z</time>
      </trkpt>
      <trkpt lat="43.51327" lon="5.88922">
        <ele>328.18</ele>
        <time>2020-01-05T08:13:32Z</time>
      </trkpt>
      <trkpt lat="43.51326" lon="5.88947">
        <ele>332.06</ele>
        <time>2020-01-05T08:13:44Z</time>
      </trkpt>
      <trkpt lat="43.51322" lon="5.88971">
        <ele>338.16</ele>
        <time>2020-01-05T08:13:58Z</time>
      </trkpt>
      <trkpt lat="43.51319" lon="5.88997">
        <ele>345.12</ele>
        <time>2020-01-05T08:14:11Z</time>
      </trkpt>
      <trkpt lat="43.51311" lon="5.89021">
        <ele>351.14</ele>
        <time>2020-01-05T08:14:24Z</time>
      </trkpt>
      <trkpt lat="43.51303" lon="5.89043">
        <ele>358.26</ele>
        <time>2020-01-05T08:14:37Z</time>
      </trkpt>
      <trkpt lat="43.51289" lon="5.8906">
        <ele>367.34</ele>
        <time>2020-01-05T08:14:54Z</time>
      </trkpt>
      <trkpt lat="43.51276" lon="5.8908">
        <ele>373.62</ele>
        <time>2020-01-05T08:15:08Z</time>
      </trkpt>
      <trkpt lat="43.51259" lon="5.89093">
        <ele>378.54</ele>
        <time>2020-01-05T08:15:21Z</time>
      </trkpt>
      <trkpt lat="43.51242" lon="5.89106">
        <ele>379.89</ele>
        <time>2020-01-05T08:15:32Z</time>
      </trkpt>
      <trkpt lat="43.51227" lon="5.89122">
        <ele>382.94</ele>
        <time>2020-01-05T08:15:45Z</time>
      </trkpt>
      <trkpt lat="43.51211" lon="5.89134">
        <ele>381.03</ele>
        <time>2020-01-05T08:15:53Z</time>
      </trkpt>
      <trkpt lat="43.51195" lon="5.89148">
        <ele>380.93</ele>
        <time>2020-01-05T08:16:05Z</time>
      </trkpt>
      <trkpt lat="43.51178" lon="5.89157">
        <ele>382.26</ele>
        <time>2020-01-05T08:16:17Z</time>
      </trkpt>
      <trkpt lat="43.51163" lon="5.89172">
        <ele>382.89</ele>
        <time>2020-01-05T08:16:29Z</time>
      </trkpt>
      <trkpt lat="43.51151" lon="5.89192">
        <ele>385.59</ele>
        <time>2020-01-05T08:16:43Z</time>
      </trkpt>
      <trkpt lat="43.51138" lon="5.8921">
        <ele>386.89</ele>
        <time>2020-01-05T08:16:53Z</time>
      </trkpt>
      <trkpt lat="43.51128" lon="5.89233">
        <ele>387.14</ele>
        <time>2020-01-05T08:17:05Z</time>
      </trkpt>
      <trkpt lat="43.51121" lon="5.89257">
        <ele>389.9</ele>
        <time>2020-01-05T08:17:16Z</time>
      </trkpt>
      <trkpt lat="43.51118" lon="5.89282">
        <ele>393.79</ele>
        <time>2020-01-05T08:17:29Z</time>
      </trkpt>
      <trkpt lat="43.51134" lon="5.89296">
        <ele>380.21</ele>
        <time>2020-01-05T08:18:04Z</time>
      </trkpt>
      <trkpt lat="43.51153" lon="5.893">
        <ele>372.67</ele>
        <time>2020-01-05T08:18:11Z</time>
      </trkpt>
      <trkpt lat="43.51171" lon="5.89305">
        <ele>368.45</ele>
        <time>2020-01-05T08:18:19Z</time>
      </trkpt>
      <trkpt lat="43.51189" lon="5.89311">
        <ele>365.91</ele>
        <time>2020-01-05T08:18:28Z</time>
      </trkpt>
      <trkpt lat="43.51205" lon="5.89327">
        <ele>364.05</ele>
        <time>2020-01-05T08:18:37Z</time>
      </trkpt>
      <trkpt lat="43.51218" lon="5.89343">
        <ele>363.54</ele>
        <time>2020-01-05T08:18:45Z</time>
      </trkpt>
      <trkpt lat="43.51234" lon="5.89359">
        <ele>365.77</ele>
        <time>2020-01-05T08:18:55Z</time>
      </trkpt>
      <trkpt lat="43.51249" lon="5.89375">
        <ele>369.03</ele>
        <time>2020-01-05T08:19:05Z</time>
      </trkpt>
      <trkpt lat="43.51261" lon="5.89396">
        <ele>367.97</ele>
        <time>2020-01-05T08:19:14Z</time>
      </trkpt>
      <trkpt lat="43.51274" lon="5.89416">
        <ele>369.5</ele>
        <time>2020-01-05T08:19:24Z</time>
      </trkpt>
      <trkpt lat="43.51291" lon="5.89428">
        <ele>374.14</ele>
        <time>2020-01-05T08:19:34Z</time>
      </trkpt>
      <trkpt lat="43.51311" lon="5.89432">
        <ele>376.19</ele>
        <time>2020-01-05T08:19:42Z</time>
      </trkpt>
      <trkpt lat="43.51329" lon="5.89433">
        <ele>377.29</ele>
        <time>2020-01-05T08:19:49Z</time>
      </trkpt>
      <trkpt lat="43.51348" lon="5.89439">
        <ele>377.94</ele>
        <time>2020-01-05T08:19:55Z</time>
      </trkpt>
      <trkpt lat="43.51368" lon="5.89441">
        <ele>377.98</ele>
        <time>2020-01-05T08:20:02Z</time>
      </trkpt>
      <trkpt lat="43.51386" lon="5.89452">
        <ele>379.12</ele>
        <time>2020-01-05T08:20:09Z</time>
      </trkpt>
      <trkpt lat="43.51402" lon="5.89466">
        <ele>376.67</ele>
        <time>2020-01-05T08:20:18Z</time>
      </trkpt>
      <trkpt lat="43.5142" lon="5.89484">
        <ele>375.97</ele>
        <time>2020-01-05T08:20:24Z</time>
      </trkpt>
      <trkpt lat="43.51436" lon="5.89498">
        <ele>375.49</ele>
        <time>2020-01-05T08:20:28Z</time>
      </trkpt>
      <trkpt lat="43.51455" lon="5.89503">
        <ele>374.66</ele>
        <time>2020-01-05T08:20:32Z</time>
      </trkpt>
      <trkpt lat="43.51476" lon="5.8951">
        <ele>375.69</ele>
        <time>2020-01-05T08:20:36Z</time>
      </trkpt>
      <trkpt lat="43.51495" lon="5.8952">
        <ele>376.24</ele>
        <time>2020-01-05T08:20:40Z</time>
      </trkpt>
      <trkpt lat="43.51517" lon="5.89527">
        <ele>376.81</ele>
        <time>2020-01-05T08:20:44Z</time>
      </trkpt>
      <trkpt lat="43.51536" lon="5.8954">
        <ele>377.32</ele>
        <time>2020-01-05T08:20:48Z</time>
      </trkpt>
      <trkpt lat="43.51555" lon="5.89558">
        <ele>376.87</ele>
        <time>2020-01-05T08:20:53Z</time>
      </trkpt>
      <trkpt lat="43.51568" lon="5.89581">
        <ele>372.76</ele>
        <time>2020-01-05T08:20:57Z</time>
      </trkpt>
      <trkpt lat="43.5158" lon="5.89604">
        <ele>368.2</ele>
        <time>2020-01-05T08:21:01Z</time>
      </trkpt>
      <trkpt lat="43.51585" lon="5.8963">
        <ele>361.06</ele>
        <time>2020-01-05T08:21:06Z</time>
      </trkpt>
      <trkpt lat="43.51601" lon="5.89645">
        <ele>359.07</ele>
        <time>2020-01-05T08:21:15Z</time>
      </trkpt>
      <trkpt lat="43.51621" lon="5.89649">
        <ele>358.87</ele>
        <time>2020-01-05T08:21:22Z</time>
      </trkpt>
      <trkpt lat="43.5164" lon="5.89656">
        <ele>359.72</ele>
        <time>2020-01-05T08:21:28Z</time>
      </trkpt>
      <trkpt lat="43.51657" lon="5.8966">
        <ele>358.08</ele>
        <time>2020-01-05T08:21:33Z</time>
      </trkpt>
      <trkpt lat="43.51678" lon="5.89666">
        <ele>354.73</ele>
        <time>2020-01-05T08:21:38Z</time>
      </trkpt>
      <trkpt lat="43.517" lon="5.89669">
        <ele>351.89</ele>
        <time>2020-01-05T08:21:43Z</time>
      </trkpt>
      <trkpt lat="43.51719" lon="5.89675">
        <ele>350.76</ele>
        <time>2020-01-05T08:21:47Z</time>
      </trkpt>
      <trkpt lat="43.51739" lon="5.89685">
        <ele>349.5</ele>
        <time>2020-01-05T08:21:51Z</time>
      </trkpt>
      <trkpt lat="43.51756" lon="5.89693">
        <ele>348.36</ele>
        <time>2020-01-05T08:21:54Z</time>
      </trkpt>
      <trkpt lat="43.51776" lon="5.89698">
        <ele>346.9</ele>
        <time>2020-01-05T08:21:57Z</time>
      </trkpt>
      <trkpt lat="43.51796" lon="5.89702">
        <ele>344.76</ele>
        <time>2020-01-05T08:22:00Z</time>
      </trkpt>
      <trkpt lat="43.51816" lon="5.89703">
        <ele>343.13</ele>
        <time>2020-01-05T08:22:03Z</time>
      </trkpt>
      <trkpt lat="43.51836" lon="5.89702">
        <ele>341.81</ele>
        <time>2020-01-05T08:22:06Z</time>
      </trkpt>
      <trkpt lat="43.51856" lon="5.897">
        <ele>340.65</ele>
        <time>2020-01-05T08:22:09Z</time>
      </trkpt>
      <trkpt lat="43.51876" lon="5.89697">
        <ele>339.51</ele>
        <time>2020-01-05T08:22:12Z</time>
      </trkpt>
      <trkpt lat="43.51895" lon="5.89695">
        <ele>338.8</ele>
        <time>2020-01-05T08:22:15Z</time>
      </trkpt>
      <trkpt lat="43.51914" lon="5.89692">
        <ele>338.51</ele>
        <time>2020-01-05T08:22:18Z</time>
      </trkpt>
      <trkpt lat="43.51933" lon="5.89688">
        <ele>338.44</ele>
        <time>2020-01-05T08:22:21Z</time>
      </trkpt>
      <trkpt lat="43.51951" lon="5.8968">
        <ele>338.49</ele>
        <time>2020-01-05T08:22:24Z</time>
      </trkpt>
      <trkpt lat="43.5197" lon="5.89672">
        <ele>338</ele>
        <time>2020-01-05T08:22:27Z</time>
      </trkpt>
      <trkpt lat="43.51993" lon="5.89664">
        <ele>338.28</ele>
        <time>2020-01-05T08:22:31Z</time>
      </trkpt>
      <trkpt lat="43.52015" lon="5.89656">
        <ele>338.62</ele>
        <time>2020-01-05T08:22:35Z</time>
      </trkpt>
      <trkpt lat="43.52037" lon="5.8965">
        <ele>339.51</ele>
        <time>2020-01-05T08:22:39Z</time>
      </trkpt>
      <trkpt lat="43.52058" lon="5.89642">
        <ele>339.45</ele>
        <time>2020-01-05T08:22:43Z</time>
      </trkpt>
      <trkpt lat="43.52079" lon="5.89632">
        <ele>339.58</ele>
        <time>2020-01-05T08:22:47Z</time>
      </trkpt>
      <trkpt lat="43.52099" lon="5.89622">
        <ele>339.94</ele>
        <time>2020-01-05T08:22:51Z</time>
      </trkpt>
      <trkpt lat="43.5212" lon="5.89614">
        <ele>340.6</ele>
        <time>2020-01-05T08:22:55Z</time>
      </trkpt>
      <trkpt lat="43.52142" lon="5.89608">
        <ele>342.25</ele>
        <time>2020-01-05T08:22:59Z</time>
      </trkpt>
      <trkpt lat="43.52163" lon="5.89597">
        <ele>343.49</ele>
        <time>2020-01-05T08:23:03Z</time>
      </trkpt>
      <trkpt lat="43.52184" lon="5.89588">
        <ele>344.61</ele>
        <time>2020-01-05T08:23:07Z</time>
      </trkpt>
      <trkpt lat="43.52204" lon="5.89578">
        <ele>345.89</ele>
        <time>2020-01-05T08:23:11Z</time>
      </trkpt>
      <trkpt lat="43.52227" lon="5.89567">
        <ele>346.92</ele>
        <time>2020-01-05T08:23:15Z</time>
      </trkpt>
      <trkpt lat="43.52248" lon="5.89559">
        <ele>347.52</ele>
        <time>2020-01-05T08:23:18Z</time>
      </trkpt>
      <trkpt lat="43.52268" lon="5.89555">
        <ele>348.2</ele>
        <time>2020-01-05T08:23:21Z</time>
      </trkpt>
      <trkpt lat="43.52286" lon="5.89554">
        <ele>349.27</ele>
        <time>2020-01-05T08:23:24Z</time>
      </trkpt>
      <trkpt lat="43.52309" lon="5.89556">
        <ele>350.65</ele>
        <time>2020-01-05T08:23:28Z</time>
      </trkpt>
      <trkpt lat="43.52331" lon="5.89558">
        <ele>352.37</ele>
        <time>2020-01-05T08:23:32Z</time>
      </trkpt>
      <trkpt lat="43.5235" lon="5.89555">
        <ele>354.78</ele>
        <time>2020-01-05T08:23:36Z</time>
      </trkpt>
      <trkpt lat="43.5237" lon="5.89556">
        <ele>358.45</ele>
        <time>2020-01-05T08:23:40Z</time>
      </trkpt>
      <trkpt lat="43.52393" lon="5.89556">
        <ele>362.42</ele>
        <time>2020-01-05T08:23:45Z</time>
      </trkpt>
      <trkpt lat="43.52412" lon="5.89559">
        <ele>366.55</ele>
        <time>2020-01-05T08:23:49Z</time>
      </trkpt>
      <trkpt lat="43.5243" lon="5.89562">
        <ele>371.72</ele>
        <time>2020-01-05T08:23:53Z</time>
      </trkpt>
      <trkpt lat="43.5245" lon="5.89563">
        <ele>374.87</ele>
        <time>2020-01-05T08:23:57Z</time>
      </trkpt>
      <trkpt lat="43.52471" lon="5.89567">
        <ele>378.71</ele>
        <time>2020-01-05T08:24:01Z</time>
      </trkpt>
      <trkpt lat="43.52491" lon="5.89567">
        <ele>379.51</ele>
        <time>2020-01-05T08:24:05Z</time>
      </trkpt>
      <trkpt lat="43.52512" lon="5.89568">
        <ele>381.32</ele>
        <time>2020-01-05T08:24:10Z</time>
      </trkpt>
      <trkpt lat="43.52533" lon="5.89568">
        <ele>382.71</ele>
        <time>2020-01-05T08:24:15Z</time>
      </trkpt>
      <trkpt lat="43.52553" lon="5.89567">
        <ele>386.24</ele>
        <time>2020-01-05T08:24:19Z</time>
      </trkpt>
      <trkpt lat="43.52575" lon="5.89568">
        <ele>387.69</ele>
        <time>2020-01-05T08:24:23Z</time>
      </trkpt>
      <trkpt lat="43.52598" lon="5.89569">
        <ele>389.25</ele>
        <time>2020-01-05T08:24:27Z</time>
      </trkpt>
      <trkpt lat="43.52618" lon="5.89568">
        <ele>389.73</ele>
        <time>2020-01-05T08:24:30Z</time>
      </trkpt>
      <trkpt lat="43.52641" lon="5.89571">
        <ele>387.4</ele>
        <time>2020-01-05T08:24:33Z</time>
      </trkpt>
      <trkpt lat="43.5266" lon="5.89571">
        <ele>386.09</ele>
        <time>2020-01-05T08:24:36Z</time>
      </trkpt>
      <trkpt lat="43.52684" lon="5.89575">
        <ele>384.99</ele>
        <time>2020-01-05T08:24:40Z</time>
      </trkpt>
      <trkpt lat="43.52708" lon="5.89576">
        <ele>382.56</ele>
        <time>2020-01-05T08:24:44Z</time>
      </trkpt>
      <trkpt lat="43.52732" lon="5.89577">
        <ele>383.27</ele>
        <time>2020-01-05T08:24:48Z</time>
      </trkpt>
      <trkpt lat="43.52754" lon="5.89577">
        <ele>381.31</ele>
        <time>2020-01-05T08:24:52Z</time>
      </trkpt>
      <trkpt lat="43.52772" lon="5.89573">
        <ele>379.04</ele>
        <time>2020-01-05T08:24:56Z</time>
      </trkpt>
      <trkpt lat="43.52792" lon="5.89571">
        <ele>375.04</ele>
        <time>2020-01-05T08:25:01Z</time>
      </trkpt>
      <trkpt lat="43.52813" lon="5.89559">
        <ele>364.1</ele>
        <time>2020-01-05T08:25:06Z</time>
      </trkpt>
      <trkpt lat="43.52832" lon="5.89546">
        <ele>354.81</ele>
        <time>2020-01-05T08:25:10Z</time>
      </trkpt>
      <trkpt lat="43.5285" lon="5.89538">
        <ele>350.4</ele>
        <time>2020-01-05T08:25:15Z</time>
      </trkpt>
      <trkpt lat="43.52869" lon="5.89529">
        <ele>348.43</ele>
        <time>2020-01-05T08:25:21Z</time>
      </trkpt>
      <trkpt lat="43.52888" lon="5.8952">
        <ele>348.02</ele>
        <time>2020-01-05T08:25:27Z</time>
      </trkpt>
      <trkpt lat="43.52908" lon="5.89514">
        <ele>347.91</ele>
        <time>2020-01-05T08:25:33Z</time>
      </trkpt>
      <trkpt lat="43.52926" lon="5.89505">
        <ele>349.12</ele>
        <time>2020-01-05T08:25:39Z</time>
      </trkpt>
      <trkpt lat="43.52945" lon="5.89498">
        <ele>351.19</ele>
        <time>2020-01-05T08:25:46Z</time>
      </trkpt>
      <trkpt lat="43.52962" lon="5.89488">
        <ele>352.61</ele>
        <time>2020-01-05T08:25:52Z</time>
      </trkpt>
      <trkpt lat="43.52981" lon="5.89479">
        <ele>353.32</ele>
        <time>2020-01-05T08:25:59Z</time>
      </trkpt>
      <trkpt lat="43.52999" lon="5.8947">
        <ele>354.44</ele>
        <time>2020-01-05T08:26:05Z</time>
      </trkpt>
      <trkpt lat="43.53018" lon="5.8946">
        <ele>352.7</ele>
        <time>2020-01-05T08:26:11Z</time>
      </trkpt>
      <trkpt lat="43.53036" lon="5.89448">
        <ele>349.91</ele>
        <time>2020-01-05T08:26:17Z</time>
      </trkpt>
      <trkpt lat="43.53053" lon="5.89437">
        <ele>350.06</ele>
        <time>2020-01-05T08:26:23Z</time>
      </trkpt>
      <trkpt lat="43.53071" lon="5.89422">
        <ele>350.05</ele>
        <time>2020-01-05T08:26:29Z</time>
      </trkpt>
      <trkpt lat="43.53088" lon="5.89408">
        <ele>350.92</ele>
        <time>2020-01-05T08:26:36Z</time>
      </trkpt>
      <trkpt lat="43.53104" lon="5.89392">
        <ele>352.9</ele>
        <time>2020-01-05T08:26:43Z</time>
      </trkpt>
      <trkpt lat="43.53117" lon="5.89373">
        <ele>354.14</ele>
        <time>2020-01-05T08:26:49Z</time>
      </trkpt>
      <trkpt lat="43.53132" lon="5.8936">
        <ele>354.72</ele>
        <time>2020-01-05T08:26:56Z</time>
      </trkpt>
      <trkpt lat="43.53149" lon="5.89349">
        <ele>357.09</ele>
        <time>2020-01-05T08:27:04Z</time>
      </trkpt>
      <trkpt lat="43.53166" lon="5.8934">
        <ele>357.94</ele>
        <time>2020-01-05T08:27:11Z</time>
      </trkpt>
      <trkpt lat="43.53186" lon="5.8933">
        <ele>360.29</ele>
        <time>2020-01-05T08:27:19Z</time>
      </trkpt>
      <trkpt lat="43.53203" lon="5.89318">
        <ele>360.66</ele>
        <time>2020-01-05T08:27:26Z</time>
      </trkpt>
      <trkpt lat="43.53219" lon="5.89304">
        <ele>359.42</ele>
        <time>2020-01-05T08:27:33Z</time>
      </trkpt>
      <trkpt lat="43.53237" lon="5.89292">
        <ele>358.81</ele>
        <time>2020-01-05T08:27:41Z</time>
      </trkpt>
      <trkpt lat="43.53252" lon="5.89277">
        <ele>357.81</ele>
        <time>2020-01-05T08:27:47Z</time>
      </trkpt>
      <trkpt lat="43.53269" lon="5.89264">
        <ele>358.35</ele>
        <time>2020-01-05T08:27:55Z</time>
      </trkpt>
      <trkpt lat="43.53285" lon="5.8925">
        <ele>358.17</ele>
        <time>2020-01-05T08:28:02Z</time>
      </trkpt>
      <trkpt lat="43.53302" lon="5.89235">
        <ele>358.36</ele>
        <time>2020-01-05T08:28:10Z</time>
      </trkpt>
      <trkpt lat="43.53319" lon="5.89221">
        <ele>358.83</ele>
        <time>2020-01-05T08:28:18Z</time>
      </trkpt>
      <trkpt lat="43.53335" lon="5.89208">
        <ele>358.7</ele>
        <time>2020-01-05T08:28:25Z</time>
      </trkpt>
      <trkpt lat="43.53353" lon="5.89192">
        <ele>359.08</ele>
        <time>2020-01-05T08:28:33Z</time>
      </trkpt>
      <trkpt lat="43.5337" lon="5.89177">
        <ele>359.94</ele>
        <time>2020-01-05T08:28:41Z</time>
      </trkpt>
      <trkpt lat="43.53387" lon="5.89163">
        <ele>360.78</ele>
        <time>2020-01-05T08:28:49Z</time>
      </trkpt>
      <trkpt lat="43.53403" lon="5.8915">
        <ele>360.77</ele>
        <time>2020-01-05T08:28:57Z</time>
      </trkpt>
      <trkpt lat="43.53419" lon="5.89135">
        <ele>360.53</ele>
        <time>2020-01-05T08:29:05Z</time>
      </trkpt>
      <trkpt lat="43.53433" lon="5.89118">
        <ele>361.7</ele>
        <time>2020-01-05T08:29:13Z</time>
      </trkpt>
      <trkpt lat="43.53448" lon="5.89102">
        <ele>363</ele>
        <time>2020-01-05T08:29:21Z</time>
      </trkpt>
      <trkpt lat="43.53459" lon="5.8908">
        <ele>364.86</ele>
        <time>2020-01-05T08:29:29Z</time>
      </trkpt>
      <trkpt lat="43.53462" lon="5.89052">
        <ele>365.54</ele>
        <time>2020-01-05T08:29:38Z</time>
      </trkpt>
      <trkpt lat="43.53458" lon="5.89027">
        <ele>366.78</ele>
        <time>2020-01-05T08:29:45Z</time>
      </trkpt>
      <trkpt lat="43.53443" lon="5.89011">
        <ele>367.11</ele>
        <time>2020-01-05T08:29:54Z</time>
      </trkpt>
      <trkpt lat="43.53426" lon="5.89">
        <ele>366.09</ele>
        <time>2020-01-05T08:30:08Z</time>
      </trkpt>
      <trkpt lat="43.53408" lon="5.88994">
        <ele>366.14</ele>
        <time>2020-01-05T08:30:18Z</time>
      </trkpt>
      <trkpt lat="43.53391" lon="5.88984">
        <ele>367.04</ele>
        <time>2020-01-05T08:30:27Z</time>
      </trkpt>
      <trkpt lat="43.53377" lon="5.88967">
        <ele>368.22</ele>
        <time>2020-01-05T08:30:35Z</time>
      </trkpt>
      <trkpt lat="43.53365" lon="5.88947">
        <ele>369.22</ele>
        <time>2020-01-05T08:30:43Z</time>
      </trkpt>
      <trkpt lat="43.53356" lon="5.88924">
        <ele>369.15</ele>
        <time>2020-01-05T08:30:52Z</time>
      </trkpt>
      <trkpt lat="43.53344" lon="5.88902">
        <ele>368.44</ele>
        <time>2020-01-05T08:31:01Z</time>
      </trkpt>
      <trkpt lat="43.53331" lon="5.88881">
        <ele>368.07</ele>
        <time>2020-01-05T08:31:09Z</time>
      </trkpt>
      <trkpt lat="43.5332" lon="5.88859">
        <ele>367.99</ele>
        <time>2020-01-05T08:31:17Z</time>
      </trkpt>
      <trkpt lat="43.53305" lon="5.88842">
        <ele>366.41</ele>
        <time>2020-01-05T08:31:26Z</time>
      </trkpt>
      <trkpt lat="43.53287" lon="5.88829">
        <ele>366.19</ele>
        <time>2020-01-05T08:31:34Z</time>
      </trkpt>
      <trkpt lat="43.53271" lon="5.88816">
        <ele>366.53</ele>
        <time>2020-01-05T08:31:41Z</time>
      </trkpt>
      <trkpt lat="43.53253" lon="5.88804">
        <ele>366.47</ele>
        <time>2020-01-05T08:31:49Z</time>
      </trkpt>
      <trkpt lat="43.5324" lon="5.88785">
        <ele>366.17</ele>
        <time>2020-01-05T08:31:56Z</time>
      </trkpt>
      <trkpt lat="43.53249" lon="5.8876">
        <ele>366.58</ele>
        <time>2020-01-05T08:32:04Z</time>
      </trkpt>
      <trkpt lat="43.53266" lon="5.88749">
        <ele>366.45</ele>
        <time>2020-01-05T08:32:10Z</time>
      </trkpt>
      <trkpt lat="43.53274" lon="5.88726">
        <ele>367.04</ele>
        <time>2020-01-05T08:32:16Z</time>
      </trkpt>
      <trkpt lat="43.53277" lon="5.88699">
        <ele>367.54</ele>
        <time>2020-01-05T08:32:21Z</time>
      </trkpt>
      <trkpt lat="43.53288" lon="5.88679">
        <ele>369.04</ele>
        <time>2020-01-05T08:32:27Z</time>
      </trkpt>
      <trkpt lat="43.53307" lon="5.88678">
        <ele>368.83</ele>
        <time>2020-01-05T08:32:34Z</time>
      </trkpt>
      <trkpt lat="43.53324" lon="5.88688">
        <ele>367.4</ele>
        <time>2020-01-05T08:32:42Z</time>
      </trkpt>
      <trkpt lat="43.53343" lon="5.88694">
        <ele>366.43</ele>
        <time>2020-01-05T08:32:49Z</time>
      </trkpt>
      <trkpt lat="43.53362" lon="5.88703">
        <ele>365.57</ele>
        <time>2020-01-05T08:32:57Z</time>
      </trkpt>
      <trkpt lat="43.53379" lon="5.88711">
        <ele>365.54</ele>
        <time>2020-01-05T08:33:05Z</time>
      </trkpt>
      <trkpt lat="43.53397" lon="5.8872">
        <ele>365.87</ele>
        <time>2020-01-05T08:33:14Z</time>
      </trkpt>
      <trkpt lat="43.53414" lon="5.88731">
        <ele>367.14</ele>
        <time>2020-01-05T08:33:23Z</time>
      </trkpt>
      <trkpt lat="43.53433" lon="5.88737">
        <ele>366.75</ele>
        <time>2020-01-05T08:33:32Z</time>
      </trkpt>
      <trkpt lat="43.53453" lon="5.88739">
        <ele>365.47</ele>
        <time>2020-01-05T08:33:41Z</time>
      </trkpt>
      <trkpt lat="43.53471" lon="5.88738">
        <ele>366.39</ele>
        <time>2020-01-05T08:33:51Z</time>
      </trkpt>
      <trkpt lat="43.5349" lon="5.88731">
        <ele>366.07</ele>
        <time>2020-01-05T08:34:00Z</time>
      </trkpt>
      <trkpt lat="43.53506" lon="5.88716">
        <ele>365.1</ele>
        <time>2020-01-05T08:34:07Z</time>
      </trkpt>
      <trkpt lat="43.53522" lon="5.88697">
        <ele>364.27</ele>
        <time>2020-01-05T08:34:14Z</time>
      </trkpt>
      <trkpt lat="43.53536" lon="5.88677">
        <ele>364.85</ele>
        <time>2020-01-05T08:34:21Z</time>
      </trkpt>
      <trkpt lat="43.53549" lon="5.88658">
        <ele>365.37</ele>
        <time>2020-01-05T08:34:29Z</time>
      </trkpt>
      <trkpt lat="43.53563" lon="5.88641">
        <ele>366.84</ele>
        <time>2020-01-05T08:34:37Z</time>
      </trkpt>
      <trkpt lat="43.53582" lon="5.88635">
        <ele>367.22</ele>
        <time>2020-01-05T08:34:43Z</time>
      </trkpt>
      <trkpt lat="43.536" lon="5.8863">
        <ele>366.88</ele>
        <time>2020-01-05T08:34:49Z</time>
      </trkpt>
      <trkpt lat="43.53619" lon="5.88623">
        <ele>366.43</ele>
        <time>2020-01-05T08:34:56Z</time>
      </trkpt>
      <trkpt lat="43.53635" lon="5.8861">
        <ele>366.04</ele>
        <time>2020-01-05T08:35:03Z</time>
      </trkpt>
      <trkpt lat="43.5365" lon="5.88595">
        <ele>367.4</ele>
        <time>2020-01-05T08:35:10Z</time>
      </trkpt>
      <trkpt lat="43.53669" lon="5.88586">
        <ele>369.2</ele>
        <time>2020-01-05T08:35:18Z</time>
      </trkpt>
      <trkpt lat="43.53685" lon="5.88573">
        <ele>369.04</ele>
        <time>2020-01-05T08:35:24Z</time>
      </trkpt>
      <trkpt lat="43.537" lon="5.88557">
        <ele>369.76</ele>
        <time>2020-01-05T08:35:32Z</time>
      </trkpt>
      <trkpt lat="43.53713" lon="5.88539">
        <ele>371.58</ele>
        <time>2020-01-05T08:35:41Z</time>
      </trkpt>
      <trkpt lat="43.53727" lon="5.8852">
        <ele>374.14</ele>
        <time>2020-01-05T08:35:50Z</time>
      </trkpt>
      <trkpt lat="43.53738" lon="5.885">
        <ele>376.91</ele>
        <time>2020-01-05T08:36:00Z</time>
      </trkpt>
      <trkpt lat="43.53747" lon="5.88478">
        <ele>379.1</ele>
        <time>2020-01-05T08:36:10Z</time>
      </trkpt>
      <trkpt lat="43.53756" lon="5.88454">
        <ele>380.03</ele>
        <time>2020-01-05T08:36:20Z</time>
      </trkpt>
      <trkpt lat="43.53772" lon="5.88445">
        <ele>382.02</ele>
        <time>2020-01-05T08:36:28Z</time>
      </trkpt>
      <trkpt lat="43.5379" lon="5.88433">
        <ele>382.64</ele>
        <time>2020-01-05T08:36:36Z</time>
      </trkpt>
      <trkpt lat="43.53808" lon="5.88433">
        <ele>381.73</ele>
        <time>2020-01-05T08:36:47Z</time>
      </trkpt>
      <trkpt lat="43.53826" lon="5.88439">
        <ele>381.22</ele>
        <time>2020-01-05T08:36:56Z</time>
      </trkpt>
      <trkpt lat="43.53845" lon="5.88445">
        <ele>381.52</ele>
        <time>2020-01-05T08:37:06Z</time>
      </trkpt>
      <trkpt lat="43.53863" lon="5.8844">
        <ele>380.08</ele>
        <time>2020-01-05T08:37:18Z</time>
      </trkpt>
      <trkpt lat="43.53883" lon="5.88441">
        <ele>383.09</ele>
        <time>2020-01-05T08:37:30Z</time>
      </trkpt>
      <trkpt lat="43.53902" lon="5.8844">
        <ele>387.54</ele>
        <time>2020-01-05T08:37:40Z</time>
      </trkpt>
      <trkpt lat="43.53921" lon="5.8844">
        <ele>388.5</ele>
        <time>2020-01-05T08:37:48Z</time>
      </trkpt>
      <trkpt lat="43.53939" lon="5.88446">
        <ele>389.77</ele>
        <time>2020-01-05T08:37:58Z</time>
      </trkpt>
      <trkpt lat="43.53957" lon="5.88455">
        <ele>393.01</ele>
        <time>2020-01-05T08:38:08Z</time>
      </trkpt>
      <trkpt lat="43.53975" lon="5.8846">
        <ele>393.33</ele>
        <time>2020-01-05T08:38:17Z</time>
      </trkpt>
      <trkpt lat="43.53994" lon="5.88462">
        <ele>390.29</ele>
        <time>2020-01-05T08:38:26Z</time>
      </trkpt>
      <trkpt lat="43.54012" lon="5.88454">
        <ele>390.47</ele>
        <time>2020-01-05T08:38:36Z</time>
      </trkpt>
      <trkpt lat="43.54031" lon="5.88447">
        <ele>391.44</ele>
        <time>2020-01-05T08:38:46Z</time>
      </trkpt>
      <trkpt lat="43.54049" lon="5.88436">
        <ele>392.14</ele>
        <time>2020-01-05T08:38:55Z</time>
      </trkpt>
      <trkpt lat="43.54067" lon="5.8843">
        <ele>392.99</ele>
        <time>2020-01-05T08:39:03Z</time>
      </trkpt>
      <trkpt lat="43.54084" lon="5.88419">
        <ele>392.77</ele>
        <time>2020-01-05T08:39:10Z</time>
      </trkpt>
      <trkpt lat="43.54099" lon="5.88404">
        <ele>392.85</ele>
        <time>2020-01-05T08:39:17Z</time>
      </trkpt>
      <trkpt lat="43.54115" lon="5.88387">
        <ele>392.67</ele>
        <time>2020-01-05T08:39:25Z</time>
      </trkpt>
      <trkpt lat="43.54132" lon="5.88373">
        <ele>393.85</ele>
        <time>2020-01-05T08:39:33Z</time>
      </trkpt>
      <trkpt lat="43.54149" lon="5.8836">
        <ele>394.04</ele>
        <time>2020-01-05T08:39:41Z</time>
      </trkpt>
      <trkpt lat="43.54165" lon="5.88346">
        <ele>394.49</ele>
        <time>2020-01-05T08:39:48Z</time>
      </trkpt>
      <trkpt lat="43.54184" lon="5.88339">
        <ele>393.89</ele>
        <time>2020-01-05T08:39:56Z</time>
      </trkpt>
      <trkpt lat="43.54204" lon="5.88337">
        <ele>394.13</ele>
        <time>2020-01-05T08:40:05Z</time>
      </trkpt>
      <trkpt lat="43.54222" lon="5.88333">
        <ele>394.73</ele>
        <time>2020-01-05T08:40:13Z</time>
      </trkpt>
      <trkpt lat="43.54241" lon="5.88327">
        <ele>396.16</ele>
        <time>2020-01-05T08:40:22Z</time>
      </trkpt>
      <trkpt lat="43.54259" lon="5.88315">
        <ele>397.52</ele>
        <time>2020-01-05T08:40:30Z</time>
      </trkpt>
      <trkpt lat="43.54275" lon="5.88304">
        <ele>398.36</ele>
        <time>2020-01-05T08:40:39Z</time>
      </trkpt>
      <trkpt lat="43.54292" lon="5.88291">
        <ele>400.6</ele>
        <time>2020-01-05T08:40:48Z</time>
      </trkpt>
      <trkpt lat="43.54308" lon="5.88277">
        <ele>401.07</ele>
        <time>2020-01-05T08:40:57Z</time>
      </trkpt>
      <trkpt lat="43.54325" lon="5.88267">
        <ele>400.21</ele>
        <time>2020-01-05T08:41:05Z</time>
      </trkpt>
      <trkpt lat="43.54343" lon="5.88254">
        <ele>399.19</ele>
        <time>2020-01-05T08:41:14Z</time>
      </trkpt>
      <trkpt lat="43.54362" lon="5.88242">
        <ele>397.49</ele>
        <time>2020-01-05T08:41:24Z</time>
      </trkpt>
      <trkpt lat="43.5438" lon="5.88231">
        <ele>396.97</ele>
        <time>2020-01-05T08:41:31Z</time>
      </trkpt>
      <trkpt lat="43.54395" lon="5.88216">
        <ele>397.76</ele>
        <time>2020-01-05T08:41:39Z</time>
      </trkpt>
      <trkpt lat="43.5441" lon="5.88201">
        <ele>398.64</ele>
        <time>2020-01-05T08:41:47Z</time>
      </trkpt>
      <trkpt lat="43.54428" lon="5.8819">
        <ele>399.46</ele>
        <time>2020-01-05T08:41:56Z</time>
      </trkpt>
      <trkpt lat="43.54446" lon="5.8818">
        <ele>401.1</ele>
        <time>2020-01-05T08:42:04Z</time>
      </trkpt>
      <trkpt lat="43.5445" lon="5.88155">
        <ele>402.62</ele>
        <time>2020-01-05T08:42:13Z</time>
      </trkpt>
      <trkpt lat="43.54458" lon="5.88132">
        <ele>406.1</ele>
        <time>2020-01-05T08:42:23Z</time>
      </trkpt>
      <trkpt lat="43.54471" lon="5.88115">
        <ele>410.7</ele>
        <time>2020-01-05T08:42:32Z</time>
      </trkpt>
      <trkpt lat="43.54484" lon="5.88097">
        <ele>413.87</ele>
        <time>2020-01-05T08:42:40Z</time>
      </trkpt>
      <trkpt lat="43.54494" lon="5.88077">
        <ele>416.87</ele>
        <time>2020-01-05T08:42:48Z</time>
      </trkpt>
      <trkpt lat="43.54507" lon="5.88057">
        <ele>419.22</ele>
        <time>2020-01-05T08:42:56Z</time>
      </trkpt>
      <trkpt lat="43.54522" lon="5.88038">
        <ele>419.84</ele>
        <time>2020-01-05T08:43:03Z</time>
      </trkpt>
      <trkpt lat="43.54533" lon="5.88015">
        <ele>420.48</ele>
        <time>2020-01-05T08:43:09Z</time>
      </trkpt>
      <trkpt lat="43.54548" lon="5.87997">
        <ele>419.75</ele>
        <time>2020-01-05T08:43:15Z</time>
      </trkpt>
      <trkpt lat="43.54563" lon="5.87982">
        <ele>414.27</ele>
        <time>2020-01-05T08:43:40Z</time>
      </trkpt>
      <trkpt lat="43.54579" lon="5.87968">
        <ele>413.67</ele>
        <time>2020-01-05T08:43:52Z</time>
      </trkpt>
      <trkpt lat="43.54596" lon="5.87959">
        <ele>413.54</ele>
        <time>2020-01-05T08:44:01Z</time>
      </trkpt>
      <trkpt lat="43.54611" lon="5.87941">
        <ele>413.84</ele>
        <time>2020-01-05T08:44:11Z</time>
      </trkpt>
      <trkpt lat="43.54628" lon="5.87927">
        <ele>412.99</ele>
        <time>2020-01-05T08:44:21Z</time>
      </trkpt>
      <trkpt lat="43.54642" lon="5.8791">
        <ele>413.33</ele>
        <time>2020-01-05T08:44:31Z</time>
      </trkpt>
      <trkpt lat="43.54654" lon="5.87889">
        <ele>413.87</ele>
        <time>2020-01-05T08:44:41Z</time>
      </trkpt>
      <trkpt lat="43.54667" lon="5.87871">
        <ele>413.85</ele>
        <time>2020-01-05T08:44:49Z</time>
      </trkpt>
      <trkpt lat="43.54679" lon="5.87849">
        <ele>414.18</ele>
        <time>2020-01-05T08:44:57Z</time>
      </trkpt>
      <trkpt lat="43.54693" lon="5.87833">
        <ele>413.32</ele>
        <time>2020-01-05T08:45:03Z</time>
      </trkpt>
      <trkpt lat="43.54702" lon="5.8781">
        <ele>413.45</ele>
        <time>2020-01-05T08:45:09Z</time>
      </trkpt>
      <trkpt lat="43.54709" lon="5.87783">
        <ele>413.67</ele>
        <time>2020-01-05T08:45:15Z</time>
      </trkpt>
      <trkpt lat="43.54715" lon="5.87758">
        <ele>413.95</ele>
        <time>2020-01-05T08:45:20Z</time>
      </trkpt>
      <trkpt lat="43.54724" lon="5.87736">
        <ele>414.36</ele>
        <time>2020-01-05T08:45:25Z</time>
      </trkpt>
      <trkpt lat="43.54734" lon="5.87711">
        <ele>415.44</ele>
        <time>2020-01-05T08:45:32Z</time>
      </trkpt>
      <trkpt lat="43.54749" lon="5.87696">
        <ele>414.29</ele>
        <time>2020-01-05T08:45:36Z</time>
      </trkpt>
      <trkpt lat="43.54766" lon="5.87685">
        <ele>413.37</ele>
        <time>2020-01-05T08:45:40Z</time>
      </trkpt>
      <trkpt lat="43.54782" lon="5.87671">
        <ele>412.77</ele>
        <time>2020-01-05T08:45:45Z</time>
      </trkpt>
      <trkpt lat="43.548" lon="5.87663">
        <ele>409.88</ele>
        <time>2020-01-05T08:45:52Z</time>
      </trkpt>
      <trkpt lat="43.5482" lon="5.87664">
        <ele>406.95</ele>
        <time>2020-01-05T08:45:59Z</time>
      </trkpt>
      <trkpt lat="43.54839" lon="5.8767">
        <ele>406.82</ele>
        <time>2020-01-05T08:46:06Z</time>
      </trkpt>
      <trkpt lat="43.54858" lon="5.87677">
        <ele>406.11</ele>
        <time>2020-01-05T08:46:12Z</time>
      </trkpt>
      <trkpt lat="43.54876" lon="5.87678">
        <ele>405.77</ele>
        <time>2020-01-05T08:46:18Z</time>
      </trkpt>
      <trkpt lat="43.54896" lon="5.87677">
        <ele>404.32</ele>
        <time>2020-01-05T08:46:25Z</time>
      </trkpt>
      <trkpt lat="43.54916" lon="5.87678">
        <ele>403.77</ele>
        <time>2020-01-05T08:46:32Z</time>
      </trkpt>
      <trkpt lat="43.54934" lon="5.87674">
        <ele>404.46</ele>
        <time>2020-01-05T08:46:39Z</time>
      </trkpt>
      <trkpt lat="43.54952" lon="5.87664">
        <ele>404.42</ele>
        <time>2020-01-05T08:46:46Z</time>
      </trkpt>
      <trkpt lat="43.5497" lon="5.87658">
        <ele>404.61</ele>
        <time>2020-01-05T08:46:52Z</time>
      </trkpt>
      <trkpt lat="43.5499" lon="5.87654">
        <ele>403.69</ele>
        <time>2020-01-05T08:46:58Z</time>
      </trkpt>
      <trkpt lat="43.55007" lon="5.8765">
        <ele>403.8</ele>
        <time>2020-01-05T08:47:04Z</time>
      </trkpt>
      <trkpt lat="43.55024" lon="5.87639">
        <ele>403.31</ele>
        <time>2020-01-05T08:47:10Z</time>
      </trkpt>
      <trkpt lat="43.55043" lon="5.87629">
        <ele>402.95</ele>
        <time>2020-01-05T08:47:16Z</time>
      </trkpt>
      <trkpt lat="43.5506" lon="5.87612">
        <ele>402.9</ele>
        <time>2020-01-05T08:47:22Z</time>
      </trkpt>
      <trkpt lat="43.55076" lon="5.87594">
        <ele>402.41</ele>
        <time>2020-01-05T08:47:27Z</time>
      </trkpt>
      <trkpt lat="43.55091" lon="5.87577">
        <ele>401.91</ele>
        <time>2020-01-05T08:47:32Z</time>
      </trkpt>
      <trkpt lat="43.55109" lon="5.87561">
        <ele>401.77</ele>
        <time>2020-01-05T08:47:37Z</time>
      </trkpt>
      <trkpt lat="43.55124" lon="5.87546">
        <ele>401.49</ele>
        <time>2020-01-05T08:47:41Z</time>
      </trkpt>
      <trkpt lat="43.55139" lon="5.8753">
        <ele>401.19</ele>
        <time>2020-01-05T08:47:45Z</time>
      </trkpt>
      <trkpt lat="43.55154" lon="5.87513">
        <ele>400.71</ele>
        <time>2020-01-05T08:47:49Z</time>
      </trkpt>
      <trkpt lat="43.55169" lon="5.87493">
        <ele>399.72</ele>
        <time>2020-01-05T08:47:54Z</time>
      </trkpt>
      <trkpt lat="43.55184" lon="5.87473">
        <ele>398.36</ele>
        <time>2020-01-05T08:47:59Z</time>
      </trkpt>
      <trkpt lat="43.552" lon="5.87455">
        <ele>397.06</ele>
        <time>2020-01-05T08:48:03Z</time>
      </trkpt>
      <trkpt lat="43.55218" lon="5.87434">
        <ele>395.04</ele>
        <time>2020-01-05T08:48:07Z</time>
      </trkpt>
      <trkpt lat="43.55236" lon="5.87416">
        <ele>392.59</ele>
        <time>2020-01-05T08:48:11Z</time>
      </trkpt>
      <trkpt lat="43.55254" lon="5.87402">
        <ele>390.02</ele>
        <time>2020-01-05T08:48:15Z</time>
      </trkpt>
      <trkpt lat="43.55272" lon="5.87388">
        <ele>387.08</ele>
        <time>2020-01-05T08:48:20Z</time>
      </trkpt>
      <trkpt lat="43.55287" lon="5.87372">
        <ele>383.67</ele>
        <time>2020-01-05T08:48:30Z</time>
      </trkpt>
      <trkpt lat="43.55301" lon="5.87387">
        <ele>381.82</ele>
        <time>2020-01-05T08:48:37Z</time>
      </trkpt>
      <trkpt lat="43.55316" lon="5.87402">
        <ele>380.32</ele>
        <time>2020-01-05T08:48:45Z</time>
      </trkpt>
      <trkpt lat="43.55334" lon="5.87414">
        <ele>379.02</ele>
        <time>2020-01-05T08:48:53Z</time>
      </trkpt>
      <trkpt lat="43.55354" lon="5.87419">
        <ele>378.55</ele>
        <time>2020-01-05T08:49:01Z</time>
      </trkpt>
      <trkpt lat="43.55373" lon="5.87427">
        <ele>379.64</ele>
        <time>2020-01-05T08:49:09Z</time>
      </trkpt>
      <trkpt lat="43.55391" lon="5.87433">
        <ele>380.25</ele>
        <time>2020-01-05T08:49:16Z</time>
      </trkpt>
      <trkpt lat="43.5541" lon="5.87438">
        <ele>380.39</ele>
        <time>2020-01-05T08:49:23Z</time>
      </trkpt>
      <trkpt lat="43.55429" lon="5.87437">
        <ele>380.05</ele>
        <time>2020-01-05T08:49:29Z</time>
      </trkpt>
      <trkpt lat="43.55444" lon="5.87452">
        <ele>381.78</ele>
        <time>2020-01-05T08:49:36Z</time>
      </trkpt>
      <trkpt lat="43.55461" lon="5.87465">
        <ele>382.6</ele>
        <time>2020-01-05T08:49:42Z</time>
      </trkpt>
      <trkpt lat="43.55482" lon="5.87473">
        <ele>382.85</ele>
        <time>2020-01-05T08:49:47Z</time>
      </trkpt>
      <trkpt lat="43.55499" lon="5.87493">
        <ele>381.82</ele>
        <time>2020-01-05T08:49:52Z</time>
      </trkpt>
      <trkpt lat="43.55519" lon="5.87496">
        <ele>380.75</ele>
        <time>2020-01-05T08:49:56Z</time>
      </trkpt>
      <trkpt lat="43.5554" lon="5.87497">
        <ele>377.7</ele>
        <time>2020-01-05T08:50:01Z</time>
      </trkpt>
      <trkpt lat="43.55559" lon="5.87485">
        <ele>376.35</ele>
        <time>2020-01-05T08:50:06Z</time>
      </trkpt>
      <trkpt lat="43.5558" lon="5.87487">
        <ele>374.56</ele>
        <time>2020-01-05T08:50:11Z</time>
      </trkpt>
      <trkpt lat="43.55592" lon="5.87511">
        <ele>371.14</ele>
        <time>2020-01-05T08:50:16Z</time>
      </trkpt>
      <trkpt lat="43.55599" lon="5.87534">
        <ele>368.42</ele>
        <time>2020-01-05T08:50:20Z</time>
      </trkpt>
      <trkpt lat="43.55601" lon="5.87564">
        <ele>366.35</ele>
        <time>2020-01-05T08:50:25Z</time>
      </trkpt>
      <trkpt lat="43.55604" lon="5.87589">
        <ele>364.15</ele>
        <time>2020-01-05T08:50:32Z</time>
      </trkpt>
      <trkpt lat="43.55614" lon="5.8761">
        <ele>361.51</ele>
        <time>2020-01-05T08:50:40Z</time>
      </trkpt>
      <trkpt lat="43.55616" lon="5.87636">
        <ele>360.32</ele>
        <time>2020-01-05T08:50:47Z</time>
      </trkpt>
      <trkpt lat="43.55615" lon="5.87664">
        <ele>358.82</ele>
        <time>2020-01-05T08:50:54Z</time>
      </trkpt>
      <trkpt lat="43.55615" lon="5.87691">
        <ele>357.48</ele>
        <time>2020-01-05T08:51:01Z</time>
      </trkpt>
      <trkpt lat="43.5561" lon="5.87718">
        <ele>357.47</ele>
        <time>2020-01-05T08:51:08Z</time>
      </trkpt>
      <trkpt lat="43.55601" lon="5.87742">
        <ele>358.15</ele>
        <time>2020-01-05T08:51:15Z</time>
      </trkpt>
      <trkpt lat="43.55591" lon="5.87765">
        <ele>359.12</ele>
        <time>2020-01-05T08:51:23Z</time>
      </trkpt>
      <trkpt lat="43.55583" lon="5.87788">
        <ele>360.64</ele>
        <time>2020-01-05T08:51:30Z</time>
      </trkpt>
      <trkpt lat="43.55575" lon="5.8781">
        <ele>361.84</ele>
        <time>2020-01-05T08:51:36Z</time>
      </trkpt>
      <trkpt lat="43.55565" lon="5.87834">
        <ele>363.59</ele>
        <time>2020-01-05T08:51:43Z</time>
      </trkpt>
      <trkpt lat="43.55554" lon="5.87856">
        <ele>366.87</ele>
        <time>2020-01-05T08:51:52Z</time>
      </trkpt>
      <trkpt lat="43.55543" lon="5.8788">
        <ele>371.25</ele>
        <time>2020-01-05T08:52:01Z</time>
      </trkpt>
      <trkpt lat="43.55538" lon="5.87904">
        <ele>373.61</ele>
        <time>2020-01-05T08:52:09Z</time>
      </trkpt>
      <trkpt lat="43.5553" lon="5.87928">
        <ele>376.01</ele>
        <time>2020-01-05T08:52:17Z</time>
      </trkpt>
      <trkpt lat="43.55533" lon="5.87953">
        <ele>377.42</ele>
        <time>2020-01-05T08:52:24Z</time>
      </trkpt>
      <trkpt lat="43.55537" lon="5.87978">
        <ele>377.78</ele>
        <time>2020-01-05T08:52:30Z</time>
      </trkpt>
      <trkpt lat="43.55544" lon="5.88004">
        <ele>377.47</ele>
        <time>2020-01-05T08:52:37Z</time>
      </trkpt>
      <trkpt lat="43.5555" lon="5.88028">
        <ele>378.04</ele>
        <time>2020-01-05T08:52:44Z</time>
      </trkpt>
      <trkpt lat="43.55562" lon="5.8805">
        <ele>377.85</ele>
        <time>2020-01-05T08:52:51Z</time>
      </trkpt>
      <trkpt lat="43.55577" lon="5.8807">
        <ele>378.63</ele>
        <time>2020-01-05T08:52:58Z</time>
      </trkpt>
      <trkpt lat="43.55594" lon="5.88085">
        <ele>379.42</ele>
        <time>2020-01-05T08:53:04Z</time>
      </trkpt>
      <trkpt lat="43.55613" lon="5.88088">
        <ele>380.46</ele>
        <time>2020-01-05T08:53:11Z</time>
      </trkpt>
      <trkpt lat="43.55632" lon="5.88094">
        <ele>382.42</ele>
        <time>2020-01-05T08:53:20Z</time>
      </trkpt>
      <trkpt lat="43.55643" lon="5.88114">
        <ele>384.18</ele>
        <time>2020-01-05T08:53:28Z</time>
      </trkpt>
      <trkpt lat="43.55651" lon="5.88137">
        <ele>384.67</ele>
        <time>2020-01-05T08:53:34Z</time>
      </trkpt>
      <trkpt lat="43.55658" lon="5.88159">
        <ele>385.44</ele>
        <time>2020-01-05T08:53:41Z</time>
      </trkpt>
      <trkpt lat="43.55665" lon="5.88185">
        <ele>386.92</ele>
        <time>2020-01-05T08:53:48Z</time>
      </trkpt>
      <trkpt lat="43.55668" lon="5.88211">
        <ele>387.62</ele>
        <time>2020-01-05T08:53:55Z</time>
      </trkpt>
      <trkpt lat="43.55669" lon="5.88236">
        <ele>388.07</ele>
        <time>2020-01-05T08:54:02Z</time>
      </trkpt>
      <trkpt lat="43.55681" lon="5.88258">
        <ele>387.97</ele>
        <time>2020-01-05T08:54:11Z</time>
      </trkpt>
      <trkpt lat="43.55696" lon="5.88276">
        <ele>388.62</ele>
        <time>2020-01-05T08:54:20Z</time>
      </trkpt>
      <trkpt lat="43.55703" lon="5.88299">
        <ele>388.71</ele>
        <time>2020-01-05T08:54:27Z</time>
      </trkpt>
      <trkpt lat="43.55712" lon="5.88321">
        <ele>388.17</ele>
        <time>2020-01-05T08:54:34Z</time>
      </trkpt>
      <trkpt lat="43.55718" lon="5.88345">
        <ele>388.57</ele>
        <time>2020-01-05T08:54:42Z</time>
      </trkpt>
      <trkpt lat="43.5573" lon="5.88367">
        <ele>389.3</ele>
        <time>2020-01-05T08:54:51Z</time>
      </trkpt>
      <trkpt lat="43.55741" lon="5.88387">
        <ele>390.13</ele>
        <time>2020-01-05T08:54:59Z</time>
      </trkpt>
      <trkpt lat="43.55744" lon="5.88411">
        <ele>390.28</ele>
        <time>2020-01-05T08:55:06Z</time>
      </trkpt>
      <trkpt lat="43.55748" lon="5.88438">
        <ele>388.92</ele>
        <time>2020-01-05T08:55:13Z</time>
      </trkpt>
      <trkpt lat="43.55753" lon="5.88463">
        <ele>387.25</ele>
        <time>2020-01-05T08:55:20Z</time>
      </trkpt>
      <trkpt lat="43.55758" lon="5.88488">
        <ele>386.49</ele>
        <time>2020-01-05T08:55:27Z</time>
      </trkpt>
      <trkpt lat="43.55765" lon="5.88512">
        <ele>387.4</ele>
        <time>2020-01-05T08:55:35Z</time>
      </trkpt>
      <trkpt lat="43.55772" lon="5.88538">
        <ele>390.65</ele>
        <time>2020-01-05T08:55:45Z</time>
      </trkpt>
      <trkpt lat="43.5578" lon="5.8856">
        <ele>392.85</ele>
        <time>2020-01-05T08:55:55Z</time>
      </trkpt>
      <trkpt lat="43.55796" lon="5.88575">
        <ele>396.02</ele>
        <time>2020-01-05T08:56:07Z</time>
      </trkpt>
      <trkpt lat="43.55813" lon="5.88582">
        <ele>398.58</ele>
        <time>2020-01-05T08:56:18Z</time>
      </trkpt>
      <trkpt lat="43.55831" lon="5.88591">
        <ele>401.61</ele>
        <time>2020-01-05T08:56:29Z</time>
      </trkpt>
      <trkpt lat="43.55847" lon="5.88607">
        <ele>404.12</ele>
        <time>2020-01-05T08:56:41Z</time>
      </trkpt>
      <trkpt lat="43.55863" lon="5.88622">
        <ele>407.77</ele>
        <time>2020-01-05T08:56:52Z</time>
      </trkpt>
      <trkpt lat="43.5588" lon="5.88633">
        <ele>411.47</ele>
        <time>2020-01-05T08:57:00Z</time>
      </trkpt>
      <trkpt lat="43.55898" lon="5.88644">
        <ele>414.42</ele>
        <time>2020-01-05T08:57:09Z</time>
      </trkpt>
      <trkpt lat="43.55915" lon="5.88654">
        <ele>415.82</ele>
        <time>2020-01-05T08:57:16Z</time>
      </trkpt>
      <trkpt lat="43.55932" lon="5.88663">
        <ele>416.74</ele>
        <time>2020-01-05T08:57:22Z</time>
      </trkpt>
      <trkpt lat="43.55948" lon="5.88674">
        <ele>417.98</ele>
        <time>2020-01-05T08:57:28Z</time>
      </trkpt>
      <trkpt lat="43.55966" lon="5.88689">
        <ele>419.97</ele>
        <time>2020-01-05T08:57:35Z</time>
      </trkpt>
      <trkpt lat="43.55985" lon="5.88697">
        <ele>420.45</ele>
        <time>2020-01-05T08:57:41Z</time>
      </trkpt>
      <trkpt lat="43.56003" lon="5.88702">
        <ele>419.54</ele>
        <time>2020-01-05T08:57:46Z</time>
      </trkpt>
      <trkpt lat="43.56023" lon="5.88707">
        <ele>417.8</ele>
        <time>2020-01-05T08:57:52Z</time>
      </trkpt>
      <trkpt lat="43.56041" lon="5.88708">
        <ele>415.89</ele>
        <time>2020-01-05T08:57:59Z</time>
      </trkpt>
      <trkpt lat="43.56059" lon="5.88705">
        <ele>411</ele>
        <time>2020-01-05T08:58:18Z</time>
      </trkpt>
      <trkpt lat="43.56077" lon="5.88708">
        <ele>411.51</ele>
        <time>2020-01-05T08:58:28Z</time>
      </trkpt>
      <trkpt lat="43.56096" lon="5.88706">
        <ele>411.39</ele>
        <time>2020-01-05T08:58:37Z</time>
      </trkpt>
      <trkpt lat="43.56114" lon="5.88697">
        <ele>409.77</ele>
        <time>2020-01-05T09:08:14Z</time>
      </trkpt>
      <trkpt lat="43.56133" lon="5.88691">
        <ele>410.45</ele>
        <time>2020-01-05T09:08:22Z</time>
      </trkpt>
      <trkpt lat="43.5615" lon="5.88686">
        <ele>411.55</ele>
        <time>2020-01-05T09:08:30Z</time>
      </trkpt>
      <trkpt lat="43.56171" lon="5.88683">
        <ele>414.9</ele>
        <time>2020-01-05T09:08:38Z</time>
      </trkpt>
      <trkpt lat="43.5619" lon="5.88681">
        <ele>417.54</ele>
        <time>2020-01-05T09:08:46Z</time>
      </trkpt>
      <trkpt lat="43.56209" lon="5.88679">
        <ele>417.59</ele>
        <time>2020-01-05T09:08:55Z</time>
      </trkpt>
      <trkpt lat="43.56227" lon="5.88685">
        <ele>423.05</ele>
        <time>2020-01-05T09:09:06Z</time>
      </trkpt>
      <trkpt lat="43.56245" lon="5.8869">
        <ele>428.17</ele>
        <time>2020-01-05T09:09:18Z</time>
      </trkpt>
      <trkpt lat="43.56264" lon="5.88696">
        <ele>430.39</ele>
        <time>2020-01-05T09:09:28Z</time>
      </trkpt>
      <trkpt lat="43.56283" lon="5.88703">
        <ele>434.17</ele>
        <time>2020-01-05T09:09:37Z</time>
      </trkpt>
      <trkpt lat="43.56303" lon="5.88708">
        <ele>437.41</ele>
        <time>2020-01-05T09:09:47Z</time>
      </trkpt>
      <trkpt lat="43.56321" lon="5.88707">
        <ele>435.13</ele>
        <time>2020-01-05T09:09:55Z</time>
      </trkpt>
      <trkpt lat="43.5634" lon="5.88706">
        <ele>432.29</ele>
        <time>2020-01-05T09:10:04Z</time>
      </trkpt>
      <trkpt lat="43.56359" lon="5.88699">
        <ele>428.55</ele>
        <time>2020-01-05T09:10:13Z</time>
      </trkpt>
      <trkpt lat="43.56377" lon="5.88689">
        <ele>425.34</ele>
        <time>2020-01-05T09:10:21Z</time>
      </trkpt>
      <trkpt lat="43.56395" lon="5.88678">
        <ele>422.44</ele>
        <time>2020-01-05T09:10:29Z</time>
      </trkpt>
      <trkpt lat="43.56414" lon="5.88672">
        <ele>421.26</ele>
        <time>2020-01-05T09:10:37Z</time>
      </trkpt>
      <trkpt lat="43.56432" lon="5.88671">
        <ele>421.8</ele>
        <time>2020-01-05T09:10:45Z</time>
      </trkpt>
      <trkpt lat="43.56449" lon="5.88665">
        <ele>422.9</ele>
        <time>2020-01-05T09:10:53Z</time>
      </trkpt>
      <trkpt lat="43.56466" lon="5.88652">
        <ele>423.27</ele>
        <time>2020-01-05T09:11:01Z</time>
      </trkpt>
      <trkpt lat="43.56481" lon="5.88638">
        <ele>429.35</ele>
        <time>2020-01-05T09:12:33Z</time>
      </trkpt>
      <trkpt lat="43.56498" lon="5.88627">
        <ele>430.61</ele>
        <time>2020-01-05T09:12:42Z</time>
      </trkpt>
      <trkpt lat="43.56517" lon="5.88619">
        <ele>432.61</ele>
        <time>2020-01-05T09:12:52Z</time>
      </trkpt>
      <trkpt lat="43.56534" lon="5.88612">
        <ele>435.29</ele>
        <time>2020-01-05T09:13:01Z</time>
      </trkpt>
      <trkpt lat="43.56553" lon="5.88601">
        <ele>437.67</ele>
        <time>2020-01-05T09:13:09Z</time>
      </trkpt>
      <trkpt lat="43.56573" lon="5.88602">
        <ele>442.7</ele>
        <time>2020-01-05T09:13:17Z</time>
      </trkpt>
      <trkpt lat="43.56591" lon="5.88602">
        <ele>446.06</ele>
        <time>2020-01-05T09:13:24Z</time>
      </trkpt>
      <trkpt lat="43.56609" lon="5.88595">
        <ele>444.6</ele>
        <time>2020-01-05T09:13:30Z</time>
      </trkpt>
      <trkpt lat="43.56628" lon="5.88589">
        <ele>443.04</ele>
        <time>2020-01-05T09:13:37Z</time>
      </trkpt>
      <trkpt lat="43.56648" lon="5.88589">
        <ele>443.45</ele>
        <time>2020-01-05T09:13:44Z</time>
      </trkpt>
      <trkpt lat="43.56666" lon="5.8858">
        <ele>441.64</ele>
        <time>2020-01-05T09:13:50Z</time>
      </trkpt>
      <trkpt lat="43.56684" lon="5.88569">
        <ele>442.51</ele>
        <time>2020-01-05T09:13:58Z</time>
      </trkpt>
      <trkpt lat="43.56703" lon="5.88558">
        <ele>441.32</ele>
        <time>2020-01-05T09:14:03Z</time>
      </trkpt>
      <trkpt lat="43.56721" lon="5.88548">
        <ele>440.22</ele>
        <time>2020-01-05T09:14:07Z</time>
      </trkpt>
      <trkpt lat="43.5674" lon="5.88538">
        <ele>439.42</ele>
        <time>2020-01-05T09:14:11Z</time>
      </trkpt>
      <trkpt lat="43.56759" lon="5.88527">
        <ele>438.24</ele>
        <time>2020-01-05T09:14:15Z</time>
      </trkpt>
      <trkpt lat="43.56779" lon="5.88515">
        <ele>436.35</ele>
        <time>2020-01-05T09:14:19Z</time>
      </trkpt>
      <trkpt lat="43.56796" lon="5.88505">
        <ele>435.5</ele>
        <time>2020-01-05T09:14:23Z</time>
      </trkpt>
      <trkpt lat="43.56814" lon="5.88498">
        <ele>435.09</ele>
        <time>2020-01-05T09:14:27Z</time>
      </trkpt>
      <trkpt lat="43.56834" lon="5.88488">
        <ele>435.24</ele>
        <time>2020-01-05T09:14:32Z</time>
      </trkpt>
      <trkpt lat="43.56854" lon="5.88478">
        <ele>434.97</ele>
        <time>2020-01-05T09:14:37Z</time>
      </trkpt>
      <trkpt lat="43.56872" lon="5.88468">
        <ele>435.53</ele>
        <time>2020-01-05T09:14:42Z</time>
      </trkpt>
      <trkpt lat="43.56889" lon="5.88459">
        <ele>436.04</ele>
        <time>2020-01-05T09:14:47Z</time>
      </trkpt>
      <trkpt lat="43.56907" lon="5.8845">
        <ele>435.02</ele>
        <time>2020-01-05T09:14:52Z</time>
      </trkpt>
      <trkpt lat="43.56924" lon="5.88439">
        <ele>434.61</ele>
        <time>2020-01-05T09:14:57Z</time>
      </trkpt>
      <trkpt lat="43.56942" lon="5.88428">
        <ele>434.57</ele>
        <time>2020-01-05T09:15:02Z</time>
      </trkpt>
      <trkpt lat="43.56961" lon="5.88417">
        <ele>434.96</ele>
        <time>2020-01-05T09:15:07Z</time>
      </trkpt>
      <trkpt lat="43.56979" lon="5.88408">
        <ele>434.98</ele>
        <time>2020-01-05T09:15:12Z</time>
      </trkpt>
      <trkpt lat="43.56998" lon="5.88398">
        <ele>436.01</ele>
        <time>2020-01-05T09:15:18Z</time>
      </trkpt>
      <trkpt lat="43.57016" lon="5.88389">
        <ele>435.76</ele>
        <time>2020-01-05T09:15:23Z</time>
      </trkpt>
      <trkpt lat="43.57032" lon="5.88379">
        <ele>435.68</ele>
        <time>2020-01-05T09:15:28Z</time>
      </trkpt>
      <trkpt lat="43.57049" lon="5.88368">
        <ele>434.72</ele>
        <time>2020-01-05T09:15:33Z</time>
      </trkpt>
      <trkpt lat="43.57067" lon="5.88354">
        <ele>434</ele>
        <time>2020-01-05T09:15:39Z</time>
      </trkpt>
      <trkpt lat="43.57086" lon="5.88343">
        <ele>433.55</ele>
        <time>2020-01-05T09:15:45Z</time>
      </trkpt>
      <trkpt lat="43.57106" lon="5.88335">
        <ele>434.15</ele>
        <time>2020-01-05T09:15:51Z</time>
      </trkpt>
      <trkpt lat="43.57125" lon="5.88321">
        <ele>434.26</ele>
        <time>2020-01-05T09:15:57Z</time>
      </trkpt>
      <trkpt lat="43.57143" lon="5.88309">
        <ele>434.23</ele>
        <time>2020-01-05T09:16:03Z</time>
      </trkpt>
      <trkpt lat="43.57163" lon="5.88306">
        <ele>435.87</ele>
        <time>2020-01-05T09:16:10Z</time>
      </trkpt>
      <trkpt lat="43.57182" lon="5.88305">
        <ele>439.18</ele>
        <time>2020-01-05T09:16:17Z</time>
      </trkpt>
      <trkpt lat="43.57203" lon="5.88299">
        <ele>443.26</ele>
        <time>2020-01-05T09:16:24Z</time>
      </trkpt>
      <trkpt lat="43.57222" lon="5.88291">
        <ele>444.35</ele>
        <time>2020-01-05T09:16:30Z</time>
      </trkpt>
      <trkpt lat="43.5724" lon="5.8829">
        <ele>447.16</ele>
        <time>2020-01-05T09:16:36Z</time>
      </trkpt>
      <trkpt lat="43.5726" lon="5.88282">
        <ele>450.28</ele>
        <time>2020-01-05T09:16:43Z</time>
      </trkpt>
      <trkpt lat="43.57278" lon="5.88273">
        <ele>451.64</ele>
        <time>2020-01-05T09:16:51Z</time>
      </trkpt>
      <trkpt lat="43.57296" lon="5.88267">
        <ele>453.02</ele>
        <time>2020-01-05T09:16:58Z</time>
      </trkpt>
      <trkpt lat="43.57315" lon="5.88259">
        <ele>455</ele>
        <time>2020-01-05T09:17:07Z</time>
      </trkpt>
      <trkpt lat="43.57333" lon="5.88253">
        <ele>456.29</ele>
        <time>2020-01-05T09:17:15Z</time>
      </trkpt>
      <trkpt lat="43.57331" lon="5.88228">
        <ele>457.95</ele>
        <time>2020-01-05T09:17:29Z</time>
      </trkpt>
      <trkpt lat="43.57324" lon="5.88202">
        <ele>459.89</ele>
        <time>2020-01-05T09:17:37Z</time>
      </trkpt>
      <trkpt lat="43.57318" lon="5.88178">
        <ele>462.53</ele>
        <time>2020-01-05T09:17:43Z</time>
      </trkpt>
      <trkpt lat="43.57316" lon="5.88151">
        <ele>465.67</ele>
        <time>2020-01-05T09:17:50Z</time>
      </trkpt>
      <trkpt lat="43.57314" lon="5.88126">
        <ele>467.3</ele>
        <time>2020-01-05T09:17:58Z</time>
      </trkpt>
      <trkpt lat="43.57311" lon="5.88099">
        <ele>467.92</ele>
        <time>2020-01-05T09:18:07Z</time>
      </trkpt>
      <trkpt lat="43.57306" lon="5.88072">
        <ele>469.21</ele>
        <time>2020-01-05T09:18:13Z</time>
      </trkpt>
      <trkpt lat="43.57301" lon="5.88048">
        <ele>467.23</ele>
        <time>2020-01-05T09:18:20Z</time>
      </trkpt>
      <trkpt lat="43.57286" lon="5.88033">
        <ele>463.89</ele>
        <time>2020-01-05T09:18:28Z</time>
      </trkpt>
      <trkpt lat="43.57284" lon="5.88006">
        <ele>462.21</ele>
        <time>2020-01-05T09:18:35Z</time>
      </trkpt>
      <trkpt lat="43.57281" lon="5.8798">
        <ele>462.35</ele>
        <time>2020-01-05T09:18:42Z</time>
      </trkpt>
      <trkpt lat="43.57275" lon="5.87955">
        <ele>463.14</ele>
        <time>2020-01-05T09:18:48Z</time>
      </trkpt>
      <trkpt lat="43.5727" lon="5.87929">
        <ele>463.67</ele>
        <time>2020-01-05T09:18:55Z</time>
      </trkpt>
      <trkpt lat="43.57271" lon="5.87901">
        <ele>463.76</ele>
        <time>2020-01-05T09:19:02Z</time>
      </trkpt>
      <trkpt lat="43.57272" lon="5.87876">
        <ele>464.6</ele>
        <time>2020-01-05T09:19:09Z</time>
      </trkpt>
      <trkpt lat="43.57263" lon="5.87852">
        <ele>462.49</ele>
        <time>2020-01-05T09:19:16Z</time>
      </trkpt>
      <trkpt lat="43.57251" lon="5.87833">
        <ele>463.02</ele>
        <time>2020-01-05T09:19:23Z</time>
      </trkpt>
      <trkpt lat="43.57239" lon="5.87812">
        <ele>462.31</ele>
        <time>2020-01-05T09:19:31Z</time>
      </trkpt>
      <trkpt lat="43.57228" lon="5.87788">
        <ele>462.97</ele>
        <time>2020-01-05T09:19:39Z</time>
      </trkpt>
      <trkpt lat="43.57213" lon="5.8777">
        <ele>458.47</ele>
        <time>2020-01-05T09:19:45Z</time>
      </trkpt>
      <trkpt lat="43.57199" lon="5.87752">
        <ele>455.57</ele>
        <time>2020-01-05T09:19:50Z</time>
      </trkpt>
      <trkpt lat="43.57185" lon="5.87733">
        <ele>454.09</ele>
        <time>2020-01-05T09:19:56Z</time>
      </trkpt>
      <trkpt lat="43.57184" lon="5.87707">
        <ele>454.35</ele>
        <time>2020-01-05T09:20:03Z</time>
      </trkpt>
      <trkpt lat="43.57182" lon="5.87679">
        <ele>455.9</ele>
        <time>2020-01-05T09:20:11Z</time>
      </trkpt>
      <trkpt lat="43.57175" lon="5.87654">
        <ele>458.39</ele>
        <time>2020-01-05T09:20:18Z</time>
      </trkpt>
      <trkpt lat="43.57173" lon="5.87626">
        <ele>459.82</ele>
        <time>2020-01-05T09:20:25Z</time>
      </trkpt>
      <trkpt lat="43.57167" lon="5.87599">
        <ele>460.64</ele>
        <time>2020-01-05T09:20:31Z</time>
      </trkpt>
      <trkpt lat="43.57158" lon="5.87576">
        <ele>461.44</ele>
        <time>2020-01-05T09:20:36Z</time>
      </trkpt>
      <trkpt lat="43.57145" lon="5.87552">
        <ele>462.34</ele>
        <time>2020-01-05T09:20:42Z</time>
      </trkpt>
      <trkpt lat="43.57132" lon="5.8753">
        <ele>462.07</ele>
        <time>2020-01-05T09:20:47Z</time>
      </trkpt>
      <trkpt lat="43.57118" lon="5.87511">
        <ele>461.26</ele>
        <time>2020-01-05T09:20:53Z</time>
      </trkpt>
      <trkpt lat="43.57109" lon="5.87489">
        <ele>461.93</ele>
        <time>2020-01-05T09:21:01Z</time>
      </trkpt>
      <trkpt lat="43.57091" lon="5.87475">
        <ele>459.52</ele>
        <time>2020-01-05T09:21:07Z</time>
      </trkpt>
      <trkpt lat="43.57077" lon="5.87456">
        <ele>457.02</ele>
        <time>2020-01-05T09:21:12Z</time>
      </trkpt>
      <trkpt lat="43.57062" lon="5.87437">
        <ele>456.08</ele>
        <time>2020-01-05T09:21:17Z</time>
      </trkpt>
      <trkpt lat="43.57049" lon="5.87419">
        <ele>456.92</ele>
        <time>2020-01-05T09:21:21Z</time>
      </trkpt>
      <trkpt lat="43.5704" lon="5.87396">
        <ele>456.45</ele>
        <time>2020-01-05T09:21:45Z</time>
      </trkpt>
      <trkpt lat="43.57027" lon="5.87378">
        <ele>457.76</ele>
        <time>2020-01-05T09:22:05Z</time>
      </trkpt>
      <trkpt lat="43.57012" lon="5.87359">
        <ele>457.46</ele>
        <time>2020-01-05T09:22:12Z</time>
      </trkpt>
      <trkpt lat="43.57003" lon="5.87334">
        <ele>457.65</ele>
        <time>2020-01-05T09:22:17Z</time>
      </trkpt>
      <trkpt lat="43.56995" lon="5.87305">
        <ele>457.96</ele>
        <time>2020-01-05T09:22:22Z</time>
      </trkpt>
      <trkpt lat="43.56987" lon="5.87281">
        <ele>458.26</ele>
        <time>2020-01-05T09:22:26Z</time>
      </trkpt>
      <trkpt lat="43.56984" lon="5.87256">
        <ele>458.84</ele>
        <time>2020-01-05T09:22:30Z</time>
      </trkpt>
      <trkpt lat="43.56982" lon="5.87231">
        <ele>459.52</ele>
        <time>2020-01-05T09:22:34Z</time>
      </trkpt>
      <trkpt lat="43.56977" lon="5.87207">
        <ele>459.55</ele>
        <time>2020-01-05T09:22:38Z</time>
      </trkpt>
      <trkpt lat="43.56974" lon="5.87181">
        <ele>459.21</ele>
        <time>2020-01-05T09:22:43Z</time>
      </trkpt>
      <trkpt lat="43.56974" lon="5.87152">
        <ele>458.08</ele>
        <time>2020-01-05T09:22:49Z</time>
      </trkpt>
      <trkpt lat="43.56973" lon="5.87123">
        <ele>456.8</ele>
        <time>2020-01-05T09:22:55Z</time>
      </trkpt>
      <trkpt lat="43.56968" lon="5.87097">
        <ele>455.62</ele>
        <time>2020-01-05T09:23:00Z</time>
      </trkpt>
      <trkpt lat="43.56961" lon="5.87073">
        <ele>454.63</ele>
        <time>2020-01-05T09:23:05Z</time>
      </trkpt>
      <trkpt lat="43.56954" lon="5.87045">
        <ele>453.5</ele>
        <time>2020-01-05T09:23:10Z</time>
      </trkpt>
      <trkpt lat="43.56948" lon="5.8702">
        <ele>452.4</ele>
        <time>2020-01-05T09:23:14Z</time>
      </trkpt>
      <trkpt lat="43.56945" lon="5.86991">
        <ele>450.57</ele>
        <time>2020-01-05T09:23:18Z</time>
      </trkpt>
      <trkpt lat="43.56943" lon="5.86959">
        <ele>449.29</ele>
        <time>2020-01-05T09:23:22Z</time>
      </trkpt>
      <trkpt lat="43.5694" lon="5.86933">
        <ele>448.25</ele>
        <time>2020-01-05T09:23:25Z</time>
      </trkpt>
      <trkpt lat="43.56937" lon="5.86902">
        <ele>446.9</ele>
        <time>2020-01-05T09:23:29Z</time>
      </trkpt>
      <trkpt lat="43.56932" lon="5.86871">
        <ele>445.01</ele>
        <time>2020-01-05T09:23:33Z</time>
      </trkpt>
      <trkpt lat="43.56926" lon="5.86841">
        <ele>444.32</ele>
        <time>2020-01-05T09:23:37Z</time>
      </trkpt>
      <trkpt lat="43.56922" lon="5.86812">
        <ele>443.89</ele>
        <time>2020-01-05T09:23:41Z</time>
      </trkpt>
      <trkpt lat="43.56919" lon="5.86783">
        <ele>443.33</ele>
        <time>2020-01-05T09:23:45Z</time>
      </trkpt>
      <trkpt lat="43.56914" lon="5.86756">
        <ele>443.09</ele>
        <time>2020-01-05T09:23:49Z</time>
      </trkpt>
      <trkpt lat="43.56912" lon="5.86729">
        <ele>442.44</ele>
        <time>2020-01-05T09:23:53Z</time>
      </trkpt>
      <trkpt lat="43.56912" lon="5.86697">
        <ele>441.13</ele>
        <time>2020-01-05T09:23:57Z</time>
      </trkpt>
      <trkpt lat="43.56919" lon="5.8667">
        <ele>439.1</ele>
        <time>2020-01-05T09:24:01Z</time>
      </trkpt>
      <trkpt lat="43.56921" lon="5.86645">
        <ele>435.51</ele>
        <time>2020-01-05T09:24:15Z</time>
      </trkpt>
      <trkpt lat="43.56918" lon="5.86619">
        <ele>436.46</ele>
        <time>2020-01-05T09:24:32Z</time>
      </trkpt>
      <trkpt lat="43.56907" lon="5.86599">
        <ele>435.38</ele>
        <time>2020-01-05T09:24:39Z</time>
      </trkpt>
      <trkpt lat="43.56888" lon="5.86588">
        <ele>435.17</ele>
        <time>2020-01-05T09:24:49Z</time>
      </trkpt>
      <trkpt lat="43.56876" lon="5.86566">
        <ele>431.93</ele>
        <time>2020-01-05T09:25:33Z</time>
      </trkpt>
      <trkpt lat="43.56864" lon="5.86546">
        <ele>430.87</ele>
        <time>2020-01-05T09:25:41Z</time>
      </trkpt>
      <trkpt lat="43.56847" lon="5.86534">
        <ele>430.45</ele>
        <time>2020-01-05T09:25:50Z</time>
      </trkpt>
      <trkpt lat="43.56841" lon="5.86507">
        <ele>431.8</ele>
        <time>2020-01-05T09:25:59Z</time>
      </trkpt>
      <trkpt lat="43.56846" lon="5.8648">
        <ele>431.39</ele>
        <time>2020-01-05T09:26:06Z</time>
      </trkpt>
      <trkpt lat="43.56854" lon="5.86456">
        <ele>431.93</ele>
        <time>2020-01-05T09:26:13Z</time>
      </trkpt>
      <trkpt lat="43.56857" lon="5.86431">
        <ele>433.4</ele>
        <time>2020-01-05T09:26:20Z</time>
      </trkpt>
      <trkpt lat="43.5685" lon="5.86406">
        <ele>434.72</ele>
        <time>2020-01-05T09:26:26Z</time>
      </trkpt>
      <trkpt lat="43.56852" lon="5.86379">
        <ele>435.82</ele>
        <time>2020-01-05T09:26:32Z</time>
      </trkpt>
      <trkpt lat="43.56852" lon="5.8635">
        <ele>436.56</ele>
        <time>2020-01-05T09:26:38Z</time>
      </trkpt>
      <trkpt lat="43.56849" lon="5.86322">
        <ele>437.79</ele>
        <time>2020-01-05T09:26:44Z</time>
      </trkpt>
      <trkpt lat="43.56848" lon="5.86294">
        <ele>439.45</ele>
        <time>2020-01-05T09:26:50Z</time>
      </trkpt>
      <trkpt lat="43.56852" lon="5.86264">
        <ele>439.7</ele>
        <time>2020-01-05T09:26:56Z</time>
      </trkpt>
      <trkpt lat="43.56852" lon="5.86235">
        <ele>440.38</ele>
        <time>2020-01-05T09:27:02Z</time>
      </trkpt>
      <trkpt lat="43.56853" lon="5.8621">
        <ele>440.54</ele>
        <time>2020-01-05T09:27:07Z</time>
      </trkpt>
      <trkpt lat="43.5685" lon="5.86183">
        <ele>439.49</ele>
        <time>2020-01-05T09:27:13Z</time>
      </trkpt>
      <trkpt lat="43.56832" lon="5.86186">
        <ele>438.02</ele>
        <time>2020-01-05T09:27:22Z</time>
      </trkpt>
      <trkpt lat="43.56811" lon="5.86185">
        <ele>437.8</ele>
        <time>2020-01-05T09:27:29Z</time>
      </trkpt>
      <trkpt lat="43.56791" lon="5.86185">
        <ele>437.89</ele>
        <time>2020-01-05T09:27:36Z</time>
      </trkpt>
      <trkpt lat="43.56772" lon="5.86185">
        <ele>437.12</ele>
        <time>2020-01-05T09:27:41Z</time>
      </trkpt>
      <trkpt lat="43.56752" lon="5.86182">
        <ele>436.66</ele>
        <time>2020-01-05T09:27:46Z</time>
      </trkpt>
      <trkpt lat="43.56732" lon="5.86175">
        <ele>437.85</ele>
        <time>2020-01-05T09:27:51Z</time>
      </trkpt>
      <trkpt lat="43.5671" lon="5.86173">
        <ele>438.06</ele>
        <time>2020-01-05T09:27:56Z</time>
      </trkpt>
      <trkpt lat="43.56691" lon="5.86165">
        <ele>438.56</ele>
        <time>2020-01-05T09:28:01Z</time>
      </trkpt>
      <trkpt lat="43.56672" lon="5.86158">
        <ele>438.71</ele>
        <time>2020-01-05T09:28:06Z</time>
      </trkpt>
      <trkpt lat="43.56653" lon="5.86162">
        <ele>439.16</ele>
        <time>2020-01-05T09:28:12Z</time>
      </trkpt>
      <trkpt lat="43.56636" lon="5.86168">
        <ele>440.05</ele>
        <time>2020-01-05T09:28:18Z</time>
      </trkpt>
      <trkpt lat="43.56618" lon="5.86173">
        <ele>440.44</ele>
        <time>2020-01-05T09:28:24Z</time>
      </trkpt>
      <trkpt lat="43.56599" lon="5.86183">
        <ele>444.13</ele>
        <time>2020-01-05T09:28:33Z</time>
      </trkpt>
      <trkpt lat="43.56581" lon="5.86185">
        <ele>448.29</ele>
        <time>2020-01-05T09:28:42Z</time>
      </trkpt>
      <trkpt lat="43.56564" lon="5.86198">
        <ele>453.36</ele>
        <time>2020-01-05T09:28:51Z</time>
      </trkpt>
      <trkpt lat="43.56546" lon="5.86213">
        <ele>457.91</ele>
        <time>2020-01-05T09:28:59Z</time>
      </trkpt>
      <trkpt lat="43.56528" lon="5.86226">
        <ele>458.64</ele>
        <time>2020-01-05T09:29:05Z</time>
      </trkpt>
      <trkpt lat="43.56512" lon="5.8624">
        <ele>458.5</ele>
        <time>2020-01-05T09:29:10Z</time>
      </trkpt>
      <trkpt lat="43.56495" lon="5.86252">
        <ele>457.13</ele>
        <time>2020-01-05T09:29:15Z</time>
      </trkpt>
      <trkpt lat="43.56475" lon="5.86264">
        <ele>456.16</ele>
        <time>2020-01-05T09:29:21Z</time>
      </trkpt>
      <trkpt lat="43.56457" lon="5.86273">
        <ele>454.5</ele>
        <time>2020-01-05T09:29:26Z</time>
      </trkpt>
      <trkpt lat="43.56437" lon="5.86277">
        <ele>452.02</ele>
        <time>2020-01-05T09:29:31Z</time>
      </trkpt>
      <trkpt lat="43.56415" lon="5.86284">
        <ele>448.93</ele>
        <time>2020-01-05T09:29:36Z</time>
      </trkpt>
      <trkpt lat="43.56397" lon="5.86284">
        <ele>446.91</ele>
        <time>2020-01-05T09:29:40Z</time>
      </trkpt>
      <trkpt lat="43.56378" lon="5.86285">
        <ele>445.54</ele>
        <time>2020-01-05T09:29:44Z</time>
      </trkpt>
      <trkpt lat="43.56358" lon="5.86291">
        <ele>443.64</ele>
        <time>2020-01-05T09:29:48Z</time>
      </trkpt>
      <trkpt lat="43.56336" lon="5.8629">
        <ele>441.7</ele>
        <time>2020-01-05T09:29:52Z</time>
      </trkpt>
      <trkpt lat="43.56313" lon="5.86288">
        <ele>439.93</ele>
        <time>2020-01-05T09:29:56Z</time>
      </trkpt>
      <trkpt lat="43.56294" lon="5.86282">
        <ele>437.71</ele>
        <time>2020-01-05T09:30:01Z</time>
      </trkpt>
      <trkpt lat="43.56276" lon="5.86284">
        <ele>436.39</ele>
        <time>2020-01-05T09:30:12Z</time>
      </trkpt>
      <trkpt lat="43.56258" lon="5.86286">
        <ele>436.77</ele>
        <time>2020-01-05T09:30:25Z</time>
      </trkpt>
      <trkpt lat="43.5624" lon="5.86284">
        <ele>437.56</ele>
        <time>2020-01-05T09:30:35Z</time>
      </trkpt>
      <trkpt lat="43.56221" lon="5.86288">
        <ele>438.12</ele>
        <time>2020-01-05T09:30:44Z</time>
      </trkpt>
      <trkpt lat="43.56203" lon="5.86294">
        <ele>439.53</ele>
        <time>2020-01-05T09:30:55Z</time>
      </trkpt>
      <trkpt lat="43.56185" lon="5.86301">
        <ele>439.16</ele>
        <time>2020-01-05T09:31:03Z</time>
      </trkpt>
      <trkpt lat="43.56164" lon="5.86308">
        <ele>437.92</ele>
        <time>2020-01-05T09:31:09Z</time>
      </trkpt>
      <trkpt lat="43.56144" lon="5.86313">
        <ele>435.28</ele>
        <time>2020-01-05T09:31:13Z</time>
      </trkpt>
      <trkpt lat="43.56122" lon="5.86316">
        <ele>430.03</ele>
        <time>2020-01-05T09:31:18Z</time>
      </trkpt>
      <trkpt lat="43.56099" lon="5.86312">
        <ele>425.71</ele>
        <time>2020-01-05T09:31:22Z</time>
      </trkpt>
      <trkpt lat="43.56081" lon="5.86307">
        <ele>422.29</ele>
        <time>2020-01-05T09:31:25Z</time>
      </trkpt>
      <trkpt lat="43.56059" lon="5.86299">
        <ele>417.4</ele>
        <time>2020-01-05T09:31:29Z</time>
      </trkpt>
      <trkpt lat="43.56038" lon="5.86288">
        <ele>416.54</ele>
        <time>2020-01-05T09:31:32Z</time>
      </trkpt>
      <trkpt lat="43.56018" lon="5.86279">
        <ele>415.25</ele>
        <time>2020-01-05T09:31:35Z</time>
      </trkpt>
      <trkpt lat="43.55997" lon="5.86271">
        <ele>412.71</ele>
        <time>2020-01-05T09:31:39Z</time>
      </trkpt>
      <trkpt lat="43.55976" lon="5.86263">
        <ele>407.75</ele>
        <time>2020-01-05T09:31:44Z</time>
      </trkpt>
      <trkpt lat="43.55958" lon="5.86258">
        <ele>403.83</ele>
        <time>2020-01-05T09:31:48Z</time>
      </trkpt>
      <trkpt lat="43.55938" lon="5.8625">
        <ele>398.36</ele>
        <time>2020-01-05T09:31:54Z</time>
      </trkpt>
      <trkpt lat="43.55922" lon="5.86262">
        <ele>397.04</ele>
        <time>2020-01-05T09:33:16Z</time>
      </trkpt>
      <trkpt lat="43.55914" lon="5.86287">
        <ele>399.12</ele>
        <time>2020-01-05T09:33:28Z</time>
      </trkpt>
      <trkpt lat="43.55914" lon="5.86312">
        <ele>399.88</ele>
        <time>2020-01-05T09:33:35Z</time>
      </trkpt>
      <trkpt lat="43.55918" lon="5.86341">
        <ele>399.89</ele>
        <time>2020-01-05T09:33:42Z</time>
      </trkpt>
      <trkpt lat="43.55926" lon="5.86367">
        <ele>400.34</ele>
        <time>2020-01-05T09:33:47Z</time>
      </trkpt>
      <trkpt lat="43.5594" lon="5.86388">
        <ele>400.92</ele>
        <time>2020-01-05T09:33:52Z</time>
      </trkpt>
      <trkpt lat="43.55952" lon="5.86409">
        <ele>401.54</ele>
        <time>2020-01-05T09:33:57Z</time>
      </trkpt>
      <trkpt lat="43.55968" lon="5.86429">
        <ele>401.88</ele>
        <time>2020-01-05T09:34:02Z</time>
      </trkpt>
      <trkpt lat="43.55984" lon="5.86442">
        <ele>401.87</ele>
        <time>2020-01-05T09:34:06Z</time>
      </trkpt>
      <trkpt lat="43.56" lon="5.86455">
        <ele>402.14</ele>
        <time>2020-01-05T09:34:10Z</time>
      </trkpt>
      <trkpt lat="43.56019" lon="5.8646">
        <ele>403.02</ele>
        <time>2020-01-05T09:34:15Z</time>
      </trkpt>
      <trkpt lat="43.56035" lon="5.86471">
        <ele>404.29</ele>
        <time>2020-01-05T09:34:20Z</time>
      </trkpt>
      <trkpt lat="43.56041" lon="5.86496">
        <ele>406.87</ele>
        <time>2020-01-05T09:34:34Z</time>
      </trkpt>
      <trkpt lat="43.56054" lon="5.86517">
        <ele>406.98</ele>
        <time>2020-01-05T09:34:44Z</time>
      </trkpt>
      <trkpt lat="43.5607" lon="5.86532">
        <ele>406.27</ele>
        <time>2020-01-05T09:34:54Z</time>
      </trkpt>
      <trkpt lat="43.56082" lon="5.86553">
        <ele>406.12</ele>
        <time>2020-01-05T09:35:01Z</time>
      </trkpt>
      <trkpt lat="43.5609" lon="5.86575">
        <ele>405.73</ele>
        <time>2020-01-05T09:35:07Z</time>
      </trkpt>
      <trkpt lat="43.56091" lon="5.86604">
        <ele>404.19</ele>
        <time>2020-01-05T09:35:13Z</time>
      </trkpt>
      <trkpt lat="43.56082" lon="5.86627">
        <ele>401.35</ele>
        <time>2020-01-05T09:35:19Z</time>
      </trkpt>
      <trkpt lat="43.56061" lon="5.86625">
        <ele>399.37</ele>
        <time>2020-01-05T09:35:25Z</time>
      </trkpt>
      <trkpt lat="43.56041" lon="5.86623">
        <ele>398</ele>
        <time>2020-01-05T09:35:30Z</time>
      </trkpt>
      <trkpt lat="43.56019" lon="5.86623">
        <ele>396.66</ele>
        <time>2020-01-05T09:35:36Z</time>
      </trkpt>
      <trkpt lat="43.56" lon="5.86615">
        <ele>395.27</ele>
        <time>2020-01-05T09:35:41Z</time>
      </trkpt>
      <trkpt lat="43.55981" lon="5.86623">
        <ele>393.95</ele>
        <time>2020-01-05T09:35:47Z</time>
      </trkpt>
      <trkpt lat="43.55965" lon="5.86638">
        <ele>394.45</ele>
        <time>2020-01-05T09:35:53Z</time>
      </trkpt>
      <trkpt lat="43.55947" lon="5.86647">
        <ele>395.24</ele>
        <time>2020-01-05T09:35:58Z</time>
      </trkpt>
      <trkpt lat="43.55931" lon="5.8666">
        <ele>395.18</ele>
        <time>2020-01-05T09:36:03Z</time>
      </trkpt>
      <trkpt lat="43.55911" lon="5.86667">
        <ele>394.66</ele>
        <time>2020-01-05T09:36:08Z</time>
      </trkpt>
      <trkpt lat="43.55895" lon="5.86682">
        <ele>395.87</ele>
        <time>2020-01-05T09:36:14Z</time>
      </trkpt>
      <trkpt lat="43.55881" lon="5.867">
        <ele>398.25</ele>
        <time>2020-01-05T09:36:20Z</time>
      </trkpt>
      <trkpt lat="43.55869" lon="5.8672">
        <ele>399.86</ele>
        <time>2020-01-05T09:36:27Z</time>
      </trkpt>
      <trkpt lat="43.5585" lon="5.86723">
        <ele>398.2</ele>
        <time>2020-01-05T09:36:33Z</time>
      </trkpt>
      <trkpt lat="43.55829" lon="5.86731">
        <ele>397.17</ele>
        <time>2020-01-05T09:36:39Z</time>
      </trkpt>
      <trkpt lat="43.55812" lon="5.86736">
        <ele>397.16</ele>
        <time>2020-01-05T09:36:44Z</time>
      </trkpt>
      <trkpt lat="43.55797" lon="5.86757">
        <ele>397.65</ele>
        <time>2020-01-05T09:36:50Z</time>
      </trkpt>
      <trkpt lat="43.55785" lon="5.86781">
        <ele>398.98</ele>
        <time>2020-01-05T09:36:55Z</time>
      </trkpt>
      <trkpt lat="43.55772" lon="5.86804">
        <ele>400.49</ele>
        <time>2020-01-05T09:37:00Z</time>
      </trkpt>
      <trkpt lat="43.55764" lon="5.86832">
        <ele>401.34</ele>
        <time>2020-01-05T09:37:05Z</time>
      </trkpt>
      <trkpt lat="43.55762" lon="5.86861">
        <ele>401.11</ele>
        <time>2020-01-05T09:37:09Z</time>
      </trkpt>
      <trkpt lat="43.5576" lon="5.86891">
        <ele>400.24</ele>
        <time>2020-01-05T09:37:13Z</time>
      </trkpt>
      <trkpt lat="43.55757" lon="5.86919">
        <ele>399.32</ele>
        <time>2020-01-05T09:37:17Z</time>
      </trkpt>
      <trkpt lat="43.55756" lon="5.86946">
        <ele>398.52</ele>
        <time>2020-01-05T09:37:21Z</time>
      </trkpt>
      <trkpt lat="43.55758" lon="5.86974">
        <ele>397.84</ele>
        <time>2020-01-05T09:37:25Z</time>
      </trkpt>
      <trkpt lat="43.55762" lon="5.87001">
        <ele>397.2</ele>
        <time>2020-01-05T09:37:29Z</time>
      </trkpt>
      <trkpt lat="43.55772" lon="5.87023">
        <ele>397.07</ele>
        <time>2020-01-05T09:37:33Z</time>
      </trkpt>
      <trkpt lat="43.55789" lon="5.87039">
        <ele>397.34</ele>
        <time>2020-01-05T09:37:37Z</time>
      </trkpt>
      <trkpt lat="43.558" lon="5.8706">
        <ele>397.37</ele>
        <time>2020-01-05T09:37:41Z</time>
      </trkpt>
      <trkpt lat="43.55815" lon="5.87077">
        <ele>397.27</ele>
        <time>2020-01-05T09:37:45Z</time>
      </trkpt>
      <trkpt lat="43.55828" lon="5.87097">
        <ele>397.45</ele>
        <time>2020-01-05T09:37:49Z</time>
      </trkpt>
      <trkpt lat="43.55832" lon="5.87122">
        <ele>398.02</ele>
        <time>2020-01-05T09:37:53Z</time>
      </trkpt>
      <trkpt lat="43.55814" lon="5.8714">
        <ele>397.9</ele>
        <time>2020-01-05T09:37:58Z</time>
      </trkpt>
      <trkpt lat="43.55795" lon="5.87141">
        <ele>395.37</ele>
        <time>2020-01-05T09:38:05Z</time>
      </trkpt>
      <trkpt lat="43.55776" lon="5.87141">
        <ele>383.75</ele>
        <time>2020-01-05T09:39:15Z</time>
      </trkpt>
      <trkpt lat="43.55772" lon="5.87116">
        <ele>383.13</ele>
        <time>2020-01-05T09:41:36Z</time>
      </trkpt>
      <trkpt lat="43.55757" lon="5.871">
        <ele>382.15</ele>
        <time>2020-01-05T09:41:48Z</time>
      </trkpt>
      <trkpt lat="43.55742" lon="5.87086">
        <ele>382.46</ele>
        <time>2020-01-05T09:42:00Z</time>
      </trkpt>
      <trkpt lat="43.55728" lon="5.87069">
        <ele>383.94</ele>
        <time>2020-01-05T09:42:13Z</time>
      </trkpt>
      <trkpt lat="43.55716" lon="5.87049">
        <ele>385.48</ele>
        <time>2020-01-05T09:42:26Z</time>
      </trkpt>
      <trkpt lat="43.55708" lon="5.87025">
        <ele>387.3</ele>
        <time>2020-01-05T09:42:39Z</time>
      </trkpt>
      <trkpt lat="43.55695" lon="5.87006">
        <ele>388.64</ele>
        <time>2020-01-05T09:42:51Z</time>
      </trkpt>
      <trkpt lat="43.55683" lon="5.86986">
        <ele>390.52</ele>
        <time>2020-01-05T09:43:04Z</time>
      </trkpt>
      <trkpt lat="43.55672" lon="5.86964">
        <ele>393.42</ele>
        <time>2020-01-05T09:43:17Z</time>
      </trkpt>
      <trkpt lat="43.55662" lon="5.86943">
        <ele>395.54</ele>
        <time>2020-01-05T09:43:30Z</time>
      </trkpt>
      <trkpt lat="43.55654" lon="5.8692">
        <ele>397.22</ele>
        <time>2020-01-05T09:43:43Z</time>
      </trkpt>
      <trkpt lat="43.55646" lon="5.86897">
        <ele>401.69</ele>
        <time>2020-01-05T09:43:59Z</time>
      </trkpt>
      <trkpt lat="43.55642" lon="5.86872">
        <ele>406.78</ele>
        <time>2020-01-05T09:44:16Z</time>
      </trkpt>
      <trkpt lat="43.55639" lon="5.86847">
        <ele>409.93</ele>
        <time>2020-01-05T09:44:28Z</time>
      </trkpt>
      <trkpt lat="43.55641" lon="5.86822">
        <ele>412.72</ele>
        <time>2020-01-05T09:44:40Z</time>
      </trkpt>
      <trkpt lat="43.55628" lon="5.86803">
        <ele>415.61</ele>
        <time>2020-01-05T09:44:52Z</time>
      </trkpt>
      <trkpt lat="43.55621" lon="5.86781">
        <ele>419.97</ele>
        <time>2020-01-05T09:45:06Z</time>
      </trkpt>
      <trkpt lat="43.55611" lon="5.86759">
        <ele>424.34</ele>
        <time>2020-01-05T09:45:21Z</time>
      </trkpt>
      <trkpt lat="43.55599" lon="5.86739">
        <ele>427.3</ele>
        <time>2020-01-05T09:45:34Z</time>
      </trkpt>
      <trkpt lat="43.55583" lon="5.86724">
        <ele>430.02</ele>
        <time>2020-01-05T09:45:49Z</time>
      </trkpt>
      <trkpt lat="43.55569" lon="5.86708">
        <ele>430.67</ele>
        <time>2020-01-05T09:46:03Z</time>
      </trkpt>
      <trkpt lat="43.55553" lon="5.86695">
        <ele>432.42</ele>
        <time>2020-01-05T09:46:15Z</time>
      </trkpt>
      <trkpt lat="43.55539" lon="5.86677">
        <ele>433.25</ele>
        <time>2020-01-05T09:46:27Z</time>
      </trkpt>
      <trkpt lat="43.55521" lon="5.86666">
        <ele>433.51</ele>
        <time>2020-01-05T09:46:38Z</time>
      </trkpt>
      <trkpt lat="43.55528" lon="5.86641">
        <ele>433.87</ele>
        <time>2020-01-05T09:46:50Z</time>
      </trkpt>
      <trkpt lat="43.55547" lon="5.86628">
        <ele>435.24</ele>
        <time>2020-01-05T09:47:00Z</time>
      </trkpt>
      <trkpt lat="43.55547" lon="5.86602">
        <ele>433.65</ele>
        <time>2020-01-05T09:47:14Z</time>
      </trkpt>
      <trkpt lat="43.55529" lon="5.86589">
        <ele>432.51</ele>
        <time>2020-01-05T09:47:22Z</time>
      </trkpt>
      <trkpt lat="43.55514" lon="5.86574">
        <ele>430.17</ele>
        <time>2020-01-05T09:47:27Z</time>
      </trkpt>
      <trkpt lat="43.55495" lon="5.86574">
        <ele>428.5</ele>
        <time>2020-01-05T09:47:33Z</time>
      </trkpt>
      <trkpt lat="43.55473" lon="5.86568">
        <ele>427.06</ele>
        <time>2020-01-05T09:47:38Z</time>
      </trkpt>
      <trkpt lat="43.55454" lon="5.86555">
        <ele>425.27</ele>
        <time>2020-01-05T09:47:43Z</time>
      </trkpt>
      <trkpt lat="43.55445" lon="5.86533">
        <ele>423.88</ele>
        <time>2020-01-05T09:47:50Z</time>
      </trkpt>
      <trkpt lat="43.55439" lon="5.86507">
        <ele>423.11</ele>
        <time>2020-01-05T09:47:58Z</time>
      </trkpt>
      <trkpt lat="43.55426" lon="5.86488">
        <ele>422</ele>
        <time>2020-01-05T09:48:05Z</time>
      </trkpt>
      <trkpt lat="43.55411" lon="5.86469">
        <ele>422.29</ele>
        <time>2020-01-05T09:48:13Z</time>
      </trkpt>
      <trkpt lat="43.55399" lon="5.86451">
        <ele>422.26</ele>
        <time>2020-01-05T09:48:20Z</time>
      </trkpt>
      <trkpt lat="43.55385" lon="5.86433">
        <ele>422.76</ele>
        <time>2020-01-05T09:48:27Z</time>
      </trkpt>
      <trkpt lat="43.55376" lon="5.86408">
        <ele>423.07</ele>
        <time>2020-01-05T09:48:34Z</time>
      </trkpt>
      <trkpt lat="43.55364" lon="5.86385">
        <ele>422.53</ele>
        <time>2020-01-05T09:48:41Z</time>
      </trkpt>
      <trkpt lat="43.55349" lon="5.86364">
        <ele>421.69</ele>
        <time>2020-01-05T09:48:47Z</time>
      </trkpt>
      <trkpt lat="43.55337" lon="5.86343">
        <ele>421.37</ele>
        <time>2020-01-05T09:48:53Z</time>
      </trkpt>
      <trkpt lat="43.55318" lon="5.86334">
        <ele>422.69</ele>
        <time>2020-01-05T09:49:01Z</time>
      </trkpt>
      <trkpt lat="43.55299" lon="5.86331">
        <ele>425.99</ele>
        <time>2020-01-05T09:49:09Z</time>
      </trkpt>
      <trkpt lat="43.55281" lon="5.86327">
        <ele>429.81</ele>
        <time>2020-01-05T09:49:18Z</time>
      </trkpt>
      <trkpt lat="43.55263" lon="5.86333">
        <ele>432.3</ele>
        <time>2020-01-05T09:49:27Z</time>
      </trkpt>
      <trkpt lat="43.55245" lon="5.86335">
        <ele>435.96</ele>
        <time>2020-01-05T09:49:37Z</time>
      </trkpt>
      <trkpt lat="43.55225" lon="5.86336">
        <ele>435.93</ele>
        <time>2020-01-05T09:49:46Z</time>
      </trkpt>
      <trkpt lat="43.55208" lon="5.86348">
        <ele>436.44</ele>
        <time>2020-01-05T09:49:54Z</time>
      </trkpt>
      <trkpt lat="43.55199" lon="5.86373">
        <ele>437.88</ele>
        <time>2020-01-05T09:50:02Z</time>
      </trkpt>
      <trkpt lat="43.55193" lon="5.86398">
        <ele>439.07</ele>
        <time>2020-01-05T09:50:09Z</time>
      </trkpt>
      <trkpt lat="43.55183" lon="5.86419">
        <ele>440.32</ele>
        <time>2020-01-05T09:50:16Z</time>
      </trkpt>
      <trkpt lat="43.5517" lon="5.86439">
        <ele>441.2</ele>
        <time>2020-01-05T09:50:23Z</time>
      </trkpt>
      <trkpt lat="43.55156" lon="5.86458">
        <ele>441.47</ele>
        <time>2020-01-05T09:50:28Z</time>
      </trkpt>
      <trkpt lat="43.55143" lon="5.86477">
        <ele>442.5</ele>
        <time>2020-01-05T09:50:33Z</time>
      </trkpt>
      <trkpt lat="43.55132" lon="5.86498">
        <ele>443.6</ele>
        <time>2020-01-05T09:50:39Z</time>
      </trkpt>
      <trkpt lat="43.5512" lon="5.86517">
        <ele>445.44</ele>
        <time>2020-01-05T09:50:46Z</time>
      </trkpt>
      <trkpt lat="43.55104" lon="5.86535">
        <ele>447.19</ele>
        <time>2020-01-05T09:50:53Z</time>
      </trkpt>
      <trkpt lat="43.55095" lon="5.86559">
        <ele>447.86</ele>
        <time>2020-01-05T09:50:59Z</time>
      </trkpt>
      <trkpt lat="43.55079" lon="5.86577">
        <ele>448.44</ele>
        <time>2020-01-05T09:51:05Z</time>
      </trkpt>
      <trkpt lat="43.55064" lon="5.86594">
        <ele>449.42</ele>
        <time>2020-01-05T09:51:10Z</time>
      </trkpt>
      <trkpt lat="43.55051" lon="5.8661">
        <ele>450.22</ele>
        <time>2020-01-05T09:51:15Z</time>
      </trkpt>
      <trkpt lat="43.55034" lon="5.86628">
        <ele>450.76</ele>
        <time>2020-01-05T09:51:21Z</time>
      </trkpt>
      <trkpt lat="43.55018" lon="5.86643">
        <ele>452.13</ele>
        <time>2020-01-05T09:51:27Z</time>
      </trkpt>
      <trkpt lat="43.55003" lon="5.86658">
        <ele>452.94</ele>
        <time>2020-01-05T09:51:32Z</time>
      </trkpt>
      <trkpt lat="43.54986" lon="5.86668">
        <ele>453.05</ele>
        <time>2020-01-05T09:51:37Z</time>
      </trkpt>
      <trkpt lat="43.54967" lon="5.86671">
        <ele>452.16</ele>
        <time>2020-01-05T09:51:42Z</time>
      </trkpt>
      <trkpt lat="43.54952" lon="5.86657">
        <ele>446.71</ele>
        <time>2020-01-05T09:51:52Z</time>
      </trkpt>
      <trkpt lat="43.54932" lon="5.8665">
        <ele>433.07</ele>
        <time>2020-01-05T09:54:36Z</time>
      </trkpt>
      <trkpt lat="43.54913" lon="5.8664">
        <ele>432.99</ele>
        <time>2020-01-05T09:54:41Z</time>
      </trkpt>
      <trkpt lat="43.54896" lon="5.86628">
        <ele>431.82</ele>
        <time>2020-01-05T09:54:45Z</time>
      </trkpt>
      <trkpt lat="43.54881" lon="5.86613">
        <ele>429.57</ele>
        <time>2020-01-05T09:54:49Z</time>
      </trkpt>
      <trkpt lat="43.54863" lon="5.86611">
        <ele>428.34</ele>
        <time>2020-01-05T09:54:53Z</time>
      </trkpt>
      <trkpt lat="43.54849" lon="5.86631">
        <ele>426.72</ele>
        <time>2020-01-05T09:55:01Z</time>
      </trkpt>
      <trkpt lat="43.54843" lon="5.86659">
        <ele>426.07</ele>
        <time>2020-01-05T09:55:09Z</time>
      </trkpt>
      <trkpt lat="43.5484" lon="5.86687">
        <ele>425.67</ele>
        <time>2020-01-05T09:55:16Z</time>
      </trkpt>
      <trkpt lat="43.54834" lon="5.86712">
        <ele>426.04</ele>
        <time>2020-01-05T09:55:22Z</time>
      </trkpt>
      <trkpt lat="43.54825" lon="5.86736">
        <ele>426.8</ele>
        <time>2020-01-05T09:55:30Z</time>
      </trkpt>
      <trkpt lat="43.54824" lon="5.86762">
        <ele>428.02</ele>
        <time>2020-01-05T09:55:38Z</time>
      </trkpt>
      <trkpt lat="43.54824" lon="5.86789">
        <ele>428.74</ele>
        <time>2020-01-05T09:55:46Z</time>
      </trkpt>
      <trkpt lat="43.54824" lon="5.86817">
        <ele>429.82</ele>
        <time>2020-01-05T09:55:54Z</time>
      </trkpt>
      <trkpt lat="43.54823" lon="5.86842">
        <ele>431.59</ele>
        <time>2020-01-05T09:56:02Z</time>
      </trkpt>
      <trkpt lat="43.54812" lon="5.86865">
        <ele>434.17</ele>
        <time>2020-01-05T09:56:10Z</time>
      </trkpt>
      <trkpt lat="43.54804" lon="5.86888">
        <ele>436.59</ele>
        <time>2020-01-05T09:56:17Z</time>
      </trkpt>
      <trkpt lat="43.54794" lon="5.8691">
        <ele>438.51</ele>
        <time>2020-01-05T09:56:24Z</time>
      </trkpt>
      <trkpt lat="43.54782" lon="5.86929">
        <ele>440.59</ele>
        <time>2020-01-05T09:56:31Z</time>
      </trkpt>
      <trkpt lat="43.5477" lon="5.86951">
        <ele>442.62</ele>
        <time>2020-01-05T09:56:38Z</time>
      </trkpt>
      <trkpt lat="43.54758" lon="5.86971">
        <ele>443.62</ele>
        <time>2020-01-05T09:56:44Z</time>
      </trkpt>
      <trkpt lat="43.54743" lon="5.8699">
        <ele>443.94</ele>
        <time>2020-01-05T09:56:50Z</time>
      </trkpt>
      <trkpt lat="43.5473" lon="5.87008">
        <ele>444.37</ele>
        <time>2020-01-05T09:56:55Z</time>
      </trkpt>
      <trkpt lat="43.54712" lon="5.87021">
        <ele>443.63</ele>
        <time>2020-01-05T09:57:00Z</time>
      </trkpt>
      <trkpt lat="43.54693" lon="5.87037">
        <ele>443.21</ele>
        <time>2020-01-05T09:57:05Z</time>
      </trkpt>
      <trkpt lat="43.54676" lon="5.87048">
        <ele>442.79</ele>
        <time>2020-01-05T09:57:09Z</time>
      </trkpt>
      <trkpt lat="43.54657" lon="5.87063">
        <ele>442.2</ele>
        <time>2020-01-05T09:57:14Z</time>
      </trkpt>
      <trkpt lat="43.5464" lon="5.87075">
        <ele>441.4</ele>
        <time>2020-01-05T09:57:18Z</time>
      </trkpt>
      <trkpt lat="43.54622" lon="5.87083">
        <ele>439.2</ele>
        <time>2020-01-05T09:57:22Z</time>
      </trkpt>
      <trkpt lat="43.54602" lon="5.87087">
        <ele>437.8</ele>
        <time>2020-01-05T09:57:29Z</time>
      </trkpt>
      <trkpt lat="43.54584" lon="5.87088">
        <ele>437.17</ele>
        <time>2020-01-05T09:57:35Z</time>
      </trkpt>
      <trkpt lat="43.5457" lon="5.87068">
        <ele>437.06</ele>
        <time>2020-01-05T09:57:44Z</time>
      </trkpt>
      <trkpt lat="43.54554" lon="5.87052">
        <ele>436.96</ele>
        <time>2020-01-05T09:57:53Z</time>
      </trkpt>
      <trkpt lat="43.54539" lon="5.87035">
        <ele>437.84</ele>
        <time>2020-01-05T09:58:02Z</time>
      </trkpt>
      <trkpt lat="43.54531" lon="5.87011">
        <ele>439.81</ele>
        <time>2020-01-05T09:58:12Z</time>
      </trkpt>
      <trkpt lat="43.54533" lon="5.86986">
        <ele>442.13</ele>
        <time>2020-01-05T09:58:21Z</time>
      </trkpt>
      <trkpt lat="43.54534" lon="5.86959">
        <ele>444.99</ele>
        <time>2020-01-05T09:58:32Z</time>
      </trkpt>
      <trkpt lat="43.54536" lon="5.86933">
        <ele>448.69</ele>
        <time>2020-01-05T09:58:43Z</time>
      </trkpt>
      <trkpt lat="43.54546" lon="5.86912">
        <ele>451.12</ele>
        <time>2020-01-05T09:58:54Z</time>
      </trkpt>
      <trkpt lat="43.54558" lon="5.8689">
        <ele>453.04</ele>
        <time>2020-01-05T09:59:04Z</time>
      </trkpt>
      <trkpt lat="43.54573" lon="5.86871">
        <ele>453.25</ele>
        <time>2020-01-05T09:59:13Z</time>
      </trkpt>
      <trkpt lat="43.54566" lon="5.86846">
        <ele>455.21</ele>
        <time>2020-01-05T09:59:24Z</time>
      </trkpt>
      <trkpt lat="43.54576" lon="5.86824">
        <ele>456.28</ele>
        <time>2020-01-05T09:59:33Z</time>
      </trkpt>
      <trkpt lat="43.54588" lon="5.86804">
        <ele>456.84</ele>
        <time>2020-01-05T09:59:40Z</time>
      </trkpt>
      <trkpt lat="43.54602" lon="5.86784">
        <ele>457.15</ele>
        <time>2020-01-05T09:59:47Z</time>
      </trkpt>
      <trkpt lat="43.54612" lon="5.86762">
        <ele>458.26</ele>
        <time>2020-01-05T09:59:53Z</time>
      </trkpt>
      <trkpt lat="43.54621" lon="5.86739">
        <ele>458.59</ele>
        <time>2020-01-05T09:59:58Z</time>
      </trkpt>
      <trkpt lat="43.54632" lon="5.86717">
        <ele>458.95</ele>
        <time>2020-01-05T10:00:03Z</time>
      </trkpt>
      <trkpt lat="43.54644" lon="5.86695">
        <ele>459.3</ele>
        <time>2020-01-05T10:00:08Z</time>
      </trkpt>
      <trkpt lat="43.54655" lon="5.86671">
        <ele>459.26</ele>
        <time>2020-01-05T10:00:13Z</time>
      </trkpt>
      <trkpt lat="43.54663" lon="5.86648">
        <ele>459.45</ele>
        <time>2020-01-05T10:00:17Z</time>
      </trkpt>
      <trkpt lat="43.54669" lon="5.86624">
        <ele>460.05</ele>
        <time>2020-01-05T10:00:21Z</time>
      </trkpt>
      <trkpt lat="43.54674" lon="5.86595">
        <ele>460.63</ele>
        <time>2020-01-05T10:00:26Z</time>
      </trkpt>
      <trkpt lat="43.54687" lon="5.86571">
        <ele>459.91</ele>
        <time>2020-01-05T10:00:31Z</time>
      </trkpt>
      <trkpt lat="43.54696" lon="5.86547">
        <ele>459.88</ele>
        <time>2020-01-05T10:00:35Z</time>
      </trkpt>
      <trkpt lat="43.54694" lon="5.86517">
        <ele>459.45</ele>
        <time>2020-01-05T10:00:40Z</time>
      </trkpt>
      <trkpt lat="43.54682" lon="5.86497">
        <ele>459.54</ele>
        <time>2020-01-05T10:00:46Z</time>
      </trkpt>
      <trkpt lat="43.54661" lon="5.86496">
        <ele>460.32</ele>
        <time>2020-01-05T10:00:51Z</time>
      </trkpt>
      <trkpt lat="43.54643" lon="5.86479">
        <ele>461.04</ele>
        <time>2020-01-05T10:00:56Z</time>
      </trkpt>
      <trkpt lat="43.54627" lon="5.86459">
        <ele>460.9</ele>
        <time>2020-01-05T10:01:01Z</time>
      </trkpt>
      <trkpt lat="43.54611" lon="5.86448">
        <ele>459.7</ele>
        <time>2020-01-05T10:01:08Z</time>
      </trkpt>
      <trkpt lat="43.546" lon="5.86471">
        <ele>461.45</ele>
        <time>2020-01-05T10:02:02Z</time>
      </trkpt>
      <trkpt lat="43.54592" lon="5.86494">
        <ele>462.12</ele>
        <time>2020-01-05T10:02:07Z</time>
      </trkpt>
      <trkpt lat="43.54583" lon="5.86518">
        <ele>462.61</ele>
        <time>2020-01-05T10:02:12Z</time>
      </trkpt>
      <trkpt lat="43.54569" lon="5.86543">
        <ele>462.67</ele>
        <time>2020-01-05T10:02:17Z</time>
      </trkpt>
      <trkpt lat="43.54559" lon="5.86565">
        <ele>462.75</ele>
        <time>2020-01-05T10:02:21Z</time>
      </trkpt>
      <trkpt lat="43.54546" lon="5.86587">
        <ele>463.12</ele>
        <time>2020-01-05T10:02:25Z</time>
      </trkpt>
      <trkpt lat="43.54536" lon="5.86609">
        <ele>463.26</ele>
        <time>2020-01-05T10:02:29Z</time>
      </trkpt>
      <trkpt lat="43.54521" lon="5.86625">
        <ele>463.53</ele>
        <time>2020-01-05T10:02:33Z</time>
      </trkpt>
      <trkpt lat="43.54509" lon="5.86645">
        <ele>464.2</ele>
        <time>2020-01-05T10:02:37Z</time>
      </trkpt>
      <trkpt lat="43.545" lon="5.86671">
        <ele>464.76</ele>
        <time>2020-01-05T10:02:41Z</time>
      </trkpt>
      <trkpt lat="43.54488" lon="5.86696">
        <ele>464.88</ele>
        <time>2020-01-05T10:02:45Z</time>
      </trkpt>
      <trkpt lat="43.54475" lon="5.8672">
        <ele>464.95</ele>
        <time>2020-01-05T10:02:49Z</time>
      </trkpt>
      <trkpt lat="43.54463" lon="5.86744">
        <ele>465.03</ele>
        <time>2020-01-05T10:02:53Z</time>
      </trkpt>
      <trkpt lat="43.54449" lon="5.86769">
        <ele>465.89</ele>
        <time>2020-01-05T10:02:57Z</time>
      </trkpt>
      <trkpt lat="43.54438" lon="5.86791">
        <ele>467.31</ele>
        <time>2020-01-05T10:03:01Z</time>
      </trkpt>
      <trkpt lat="43.54428" lon="5.86812">
        <ele>468.13</ele>
        <time>2020-01-05T10:03:05Z</time>
      </trkpt>
      <trkpt lat="43.54414" lon="5.86832">
        <ele>469.35</ele>
        <time>2020-01-05T10:03:09Z</time>
      </trkpt>
      <trkpt lat="43.54398" lon="5.86847">
        <ele>470.4</ele>
        <time>2020-01-05T10:03:13Z</time>
      </trkpt>
      <trkpt lat="43.5438" lon="5.86864">
        <ele>469.86</ele>
        <time>2020-01-05T10:03:17Z</time>
      </trkpt>
      <trkpt lat="43.54359" lon="5.86865">
        <ele>467.04</ele>
        <time>2020-01-05T10:03:21Z</time>
      </trkpt>
      <trkpt lat="43.54338" lon="5.8686">
        <ele>464.69</ele>
        <time>2020-01-05T10:03:25Z</time>
      </trkpt>
      <trkpt lat="43.54323" lon="5.86877">
        <ele>463.62</ele>
        <time>2020-01-05T10:03:29Z</time>
      </trkpt>
      <trkpt lat="43.54303" lon="5.86884">
        <ele>462.24</ele>
        <time>2020-01-05T10:03:34Z</time>
      </trkpt>
      <trkpt lat="43.54283" lon="5.86877">
        <ele>460.76</ele>
        <time>2020-01-05T10:03:38Z</time>
      </trkpt>
      <trkpt lat="43.5426" lon="5.86883">
        <ele>459.75</ele>
        <time>2020-01-05T10:03:42Z</time>
      </trkpt>
      <trkpt lat="43.54243" lon="5.86897">
        <ele>459.37</ele>
        <time>2020-01-05T10:03:46Z</time>
      </trkpt>
      <trkpt lat="43.54228" lon="5.86913">
        <ele>458.6</ele>
        <time>2020-01-05T10:03:50Z</time>
      </trkpt>
      <trkpt lat="43.54214" lon="5.86928">
        <ele>458.57</ele>
        <time>2020-01-05T10:03:55Z</time>
      </trkpt>
      <trkpt lat="43.54197" lon="5.86946">
        <ele>458.39</ele>
        <time>2020-01-05T10:04:02Z</time>
      </trkpt>
      <trkpt lat="43.54182" lon="5.86965">
        <ele>457.75</ele>
        <time>2020-01-05T10:04:08Z</time>
      </trkpt>
      <trkpt lat="43.54167" lon="5.86982">
        <ele>457.95</ele>
        <time>2020-01-05T10:04:14Z</time>
      </trkpt>
      <trkpt lat="43.54153" lon="5.87005">
        <ele>457.95</ele>
        <time>2020-01-05T10:04:20Z</time>
      </trkpt>
      <trkpt lat="43.54139" lon="5.87023">
        <ele>458.62</ele>
        <time>2020-01-05T10:04:25Z</time>
      </trkpt>
      <trkpt lat="43.54124" lon="5.87041">
        <ele>459.26</ele>
        <time>2020-01-05T10:04:30Z</time>
      </trkpt>
      <trkpt lat="43.54109" lon="5.87058">
        <ele>460.14</ele>
        <time>2020-01-05T10:04:35Z</time>
      </trkpt>
      <trkpt lat="43.54095" lon="5.8708">
        <ele>460.19</ele>
        <time>2020-01-05T10:04:40Z</time>
      </trkpt>
      <trkpt lat="43.5408" lon="5.87102">
        <ele>460.84</ele>
        <time>2020-01-05T10:04:45Z</time>
      </trkpt>
      <trkpt lat="43.54068" lon="5.87126">
        <ele>460.87</ele>
        <time>2020-01-05T10:04:50Z</time>
      </trkpt>
      <trkpt lat="43.54055" lon="5.87151">
        <ele>460.97</ele>
        <time>2020-01-05T10:04:55Z</time>
      </trkpt>
      <trkpt lat="43.54043" lon="5.87176">
        <ele>461.35</ele>
        <time>2020-01-05T10:05:00Z</time>
      </trkpt>
      <trkpt lat="43.54032" lon="5.87203">
        <ele>461.57</ele>
        <time>2020-01-05T10:05:05Z</time>
      </trkpt>
      <trkpt lat="43.54023" lon="5.87228">
        <ele>461.83</ele>
        <time>2020-01-05T10:05:10Z</time>
      </trkpt>
      <trkpt lat="43.54014" lon="5.87255">
        <ele>462.46</ele>
        <time>2020-01-05T10:05:15Z</time>
      </trkpt>
      <trkpt lat="43.54006" lon="5.87279">
        <ele>462.76</ele>
        <time>2020-01-05T10:05:20Z</time>
      </trkpt>
      <trkpt lat="43.53999" lon="5.87302">
        <ele>462.12</ele>
        <time>2020-01-05T10:05:26Z</time>
      </trkpt>
      <trkpt lat="43.53987" lon="5.87321">
        <ele>450.17</ele>
        <time>2020-01-05T10:08:02Z</time>
      </trkpt>
      <trkpt lat="43.53971" lon="5.87339">
        <ele>450.61</ele>
        <time>2020-01-05T10:08:07Z</time>
      </trkpt>
      <trkpt lat="43.53953" lon="5.87355">
        <ele>450.14</ele>
        <time>2020-01-05T10:08:12Z</time>
      </trkpt>
      <trkpt lat="43.53934" lon="5.87367">
        <ele>449.45</ele>
        <time>2020-01-05T10:08:17Z</time>
      </trkpt>
      <trkpt lat="43.53914" lon="5.87368">
        <ele>451.41</ele>
        <time>2020-01-05T10:08:22Z</time>
      </trkpt>
      <trkpt lat="43.53895" lon="5.8737">
        <ele>451.62</ele>
        <time>2020-01-05T10:08:27Z</time>
      </trkpt>
      <trkpt lat="43.53874" lon="5.87369">
        <ele>452.11</ele>
        <time>2020-01-05T10:08:32Z</time>
      </trkpt>
      <trkpt lat="43.53854" lon="5.87367">
        <ele>453.94</ele>
        <time>2020-01-05T10:08:37Z</time>
      </trkpt>
      <trkpt lat="43.53835" lon="5.87363">
        <ele>455.06</ele>
        <time>2020-01-05T10:08:42Z</time>
      </trkpt>
      <trkpt lat="43.53818" lon="5.87353">
        <ele>455.1</ele>
        <time>2020-01-05T10:08:47Z</time>
      </trkpt>
      <trkpt lat="43.53802" lon="5.87336">
        <ele>454.56</ele>
        <time>2020-01-05T10:08:52Z</time>
      </trkpt>
      <trkpt lat="43.53787" lon="5.87319">
        <ele>453.24</ele>
        <time>2020-01-05T10:08:57Z</time>
      </trkpt>
      <trkpt lat="43.53771" lon="5.87305">
        <ele>453.01</ele>
        <time>2020-01-05T10:09:02Z</time>
      </trkpt>
      <trkpt lat="43.53754" lon="5.87294">
        <ele>452.97</ele>
        <time>2020-01-05T10:09:07Z</time>
      </trkpt>
      <trkpt lat="43.53736" lon="5.87282">
        <ele>454.28</ele>
        <time>2020-01-05T10:09:13Z</time>
      </trkpt>
      <trkpt lat="43.53718" lon="5.87275">
        <ele>454.73</ele>
        <time>2020-01-05T10:09:19Z</time>
      </trkpt>
      <trkpt lat="43.53699" lon="5.87275">
        <ele>456.2</ele>
        <time>2020-01-05T10:09:26Z</time>
      </trkpt>
      <trkpt lat="43.5368" lon="5.87277">
        <ele>460.12</ele>
        <time>2020-01-05T10:09:34Z</time>
      </trkpt>
      <trkpt lat="43.53661" lon="5.87284">
        <ele>462.89</ele>
        <time>2020-01-05T10:09:42Z</time>
      </trkpt>
      <trkpt lat="43.53642" lon="5.87291">
        <ele>464.52</ele>
        <time>2020-01-05T10:09:50Z</time>
      </trkpt>
      <trkpt lat="43.53624" lon="5.87294">
        <ele>467.35</ele>
        <time>2020-01-05T10:09:57Z</time>
      </trkpt>
      <trkpt lat="43.53604" lon="5.87291">
        <ele>466.97</ele>
        <time>2020-01-05T10:10:04Z</time>
      </trkpt>
      <trkpt lat="43.53586" lon="5.87287">
        <ele>468.12</ele>
        <time>2020-01-05T10:10:10Z</time>
      </trkpt>
      <trkpt lat="43.53568" lon="5.87286">
        <ele>468.36</ele>
        <time>2020-01-05T10:10:16Z</time>
      </trkpt>
      <trkpt lat="43.53549" lon="5.87282">
        <ele>468.26</ele>
        <time>2020-01-05T10:10:23Z</time>
      </trkpt>
      <trkpt lat="43.53533" lon="5.87267">
        <ele>467.47</ele>
        <time>2020-01-05T10:10:30Z</time>
      </trkpt>
      <trkpt lat="43.53529" lon="5.87239">
        <ele>466.97</ele>
        <time>2020-01-05T10:10:41Z</time>
      </trkpt>
      <trkpt lat="43.53527" lon="5.87212">
        <ele>466.55</ele>
        <time>2020-01-05T10:10:46Z</time>
      </trkpt>
      <trkpt lat="43.53522" lon="5.87188">
        <ele>466.29</ele>
        <time>2020-01-05T10:10:50Z</time>
      </trkpt>
      <trkpt lat="43.53512" lon="5.87163">
        <ele>465.52</ele>
        <time>2020-01-05T10:10:54Z</time>
      </trkpt>
      <trkpt lat="43.535" lon="5.8714">
        <ele>465.11</ele>
        <time>2020-01-05T10:10:58Z</time>
      </trkpt>
      <trkpt lat="43.53479" lon="5.87133">
        <ele>464.14</ele>
        <time>2020-01-05T10:11:02Z</time>
      </trkpt>
      <trkpt lat="43.53461" lon="5.87128">
        <ele>463.62</ele>
        <time>2020-01-05T10:11:05Z</time>
      </trkpt>
      <trkpt lat="43.53444" lon="5.87115">
        <ele>462.17</ele>
        <time>2020-01-05T10:11:08Z</time>
      </trkpt>
      <trkpt lat="43.53424" lon="5.87111">
        <ele>461.05</ele>
        <time>2020-01-05T10:11:11Z</time>
      </trkpt>
      <trkpt lat="43.53403" lon="5.87111">
        <ele>460.16</ele>
        <time>2020-01-05T10:11:14Z</time>
      </trkpt>
      <trkpt lat="43.53384" lon="5.87116">
        <ele>458.96</ele>
        <time>2020-01-05T10:11:17Z</time>
      </trkpt>
      <trkpt lat="43.53366" lon="5.87122">
        <ele>457.79</ele>
        <time>2020-01-05T10:11:20Z</time>
      </trkpt>
      <trkpt lat="43.53344" lon="5.87128">
        <ele>456.43</ele>
        <time>2020-01-05T10:11:24Z</time>
      </trkpt>
      <trkpt lat="43.53321" lon="5.87133">
        <ele>454.86</ele>
        <time>2020-01-05T10:11:28Z</time>
      </trkpt>
      <trkpt lat="43.53298" lon="5.87138">
        <ele>453.52</ele>
        <time>2020-01-05T10:11:32Z</time>
      </trkpt>
      <trkpt lat="43.53276" lon="5.87146">
        <ele>452.44</ele>
        <time>2020-01-05T10:11:36Z</time>
      </trkpt>
      <trkpt lat="43.53254" lon="5.87159">
        <ele>451.45</ele>
        <time>2020-01-05T10:11:40Z</time>
      </trkpt>
      <trkpt lat="43.53235" lon="5.87176">
        <ele>449.98</ele>
        <time>2020-01-05T10:11:44Z</time>
      </trkpt>
      <trkpt lat="43.53218" lon="5.87191">
        <ele>449.71</ele>
        <time>2020-01-05T10:11:48Z</time>
      </trkpt>
      <trkpt lat="43.53202" lon="5.87209">
        <ele>449.47</ele>
        <time>2020-01-05T10:11:52Z</time>
      </trkpt>
      <trkpt lat="43.53184" lon="5.87224">
        <ele>449.54</ele>
        <time>2020-01-05T10:11:56Z</time>
      </trkpt>
      <trkpt lat="43.5317" lon="5.87241">
        <ele>449.96</ele>
        <time>2020-01-05T10:12:00Z</time>
      </trkpt>
      <trkpt lat="43.53154" lon="5.87257">
        <ele>449.68</ele>
        <time>2020-01-05T10:12:05Z</time>
      </trkpt>
      <trkpt lat="43.53151" lon="5.87284">
        <ele>451.04</ele>
        <time>2020-01-05T10:12:32Z</time>
      </trkpt>
      <trkpt lat="43.53162" lon="5.87305">
        <ele>452.3</ele>
        <time>2020-01-05T10:12:40Z</time>
      </trkpt>
      <trkpt lat="43.53169" lon="5.87328">
        <ele>452.06</ele>
        <time>2020-01-05T10:12:46Z</time>
      </trkpt>
      <trkpt lat="43.53172" lon="5.87353">
        <ele>450.71</ele>
        <time>2020-01-05T10:12:54Z</time>
      </trkpt>
      <trkpt lat="43.53163" lon="5.87378">
        <ele>446.47</ele>
        <time>2020-01-05T10:13:13Z</time>
      </trkpt>
      <trkpt lat="43.53152" lon="5.87399">
        <ele>445.77</ele>
        <time>2020-01-05T10:13:23Z</time>
      </trkpt>
      <trkpt lat="43.53152" lon="5.87424">
        <ele>445.01</ele>
        <time>2020-01-05T10:13:30Z</time>
      </trkpt>
      <trkpt lat="43.53157" lon="5.87449">
        <ele>444.59</ele>
        <time>2020-01-05T10:13:34Z</time>
      </trkpt>
      <trkpt lat="43.53165" lon="5.87475">
        <ele>443.56</ele>
        <time>2020-01-05T10:13:39Z</time>
      </trkpt>
      <trkpt lat="43.53179" lon="5.87495">
        <ele>441.84</ele>
        <time>2020-01-05T10:13:45Z</time>
      </trkpt>
      <trkpt lat="43.53192" lon="5.87516">
        <ele>440.25</ele>
        <time>2020-01-05T10:13:50Z</time>
      </trkpt>
      <trkpt lat="43.53208" lon="5.8753">
        <ele>438.8</ele>
        <time>2020-01-05T10:13:57Z</time>
      </trkpt>
      <trkpt lat="43.5322" lon="5.87553">
        <ele>437.26</ele>
        <time>2020-01-05T10:14:02Z</time>
      </trkpt>
      <trkpt lat="43.53234" lon="5.87575">
        <ele>436.02</ele>
        <time>2020-01-05T10:14:07Z</time>
      </trkpt>
      <trkpt lat="43.53252" lon="5.87595">
        <ele>434.19</ele>
        <time>2020-01-05T10:14:13Z</time>
      </trkpt>
      <trkpt lat="43.53262" lon="5.87619">
        <ele>431.76</ele>
        <time>2020-01-05T10:14:18Z</time>
      </trkpt>
      <trkpt lat="43.53274" lon="5.8764">
        <ele>430.12</ele>
        <time>2020-01-05T10:14:24Z</time>
      </trkpt>
      <trkpt lat="43.53285" lon="5.8766">
        <ele>428.94</ele>
        <time>2020-01-05T10:14:28Z</time>
      </trkpt>
      <trkpt lat="43.53297" lon="5.87681">
        <ele>427.7</ele>
        <time>2020-01-05T10:14:33Z</time>
      </trkpt>
      <trkpt lat="43.53314" lon="5.87701">
        <ele>426.82</ele>
        <time>2020-01-05T10:14:38Z</time>
      </trkpt>
      <trkpt lat="43.53329" lon="5.87722">
        <ele>426.3</ele>
        <time>2020-01-05T10:14:42Z</time>
      </trkpt>
      <trkpt lat="43.53345" lon="5.87743">
        <ele>425.7</ele>
        <time>2020-01-05T10:14:46Z</time>
      </trkpt>
      <trkpt lat="43.53358" lon="5.87766">
        <ele>425.21</ele>
        <time>2020-01-05T10:14:49Z</time>
      </trkpt>
      <trkpt lat="43.53368" lon="5.87787">
        <ele>424.6</ele>
        <time>2020-01-05T10:14:52Z</time>
      </trkpt>
      <trkpt lat="43.53375" lon="5.87818">
        <ele>424.12</ele>
        <time>2020-01-05T10:14:55Z</time>
      </trkpt>
      <trkpt lat="43.53379" lon="5.87854">
        <ele>422.56</ele>
        <time>2020-01-05T10:14:58Z</time>
      </trkpt>
      <trkpt lat="43.53383" lon="5.87883">
        <ele>419.6</ele>
        <time>2020-01-05T10:15:01Z</time>
      </trkpt>
      <trkpt lat="43.53384" lon="5.8791">
        <ele>416.42</ele>
        <time>2020-01-05T10:15:05Z</time>
      </trkpt>
      <trkpt lat="43.53385" lon="5.8794">
        <ele>413.92</ele>
        <time>2020-01-05T10:15:09Z</time>
      </trkpt>
      <trkpt lat="43.53385" lon="5.8797">
        <ele>411.91</ele>
        <time>2020-01-05T10:15:13Z</time>
      </trkpt>
      <trkpt lat="43.53381" lon="5.88004">
        <ele>409.79</ele>
        <time>2020-01-05T10:15:17Z</time>
      </trkpt>
      <trkpt lat="43.5338" lon="5.88029">
        <ele>408.21</ele>
        <time>2020-01-05T10:15:20Z</time>
      </trkpt>
      <trkpt lat="43.53379" lon="5.88055">
        <ele>406.44</ele>
        <time>2020-01-05T10:15:23Z</time>
      </trkpt>
      <trkpt lat="43.53373" lon="5.88087">
        <ele>404.08</ele>
        <time>2020-01-05T10:15:27Z</time>
      </trkpt>
      <trkpt lat="43.53367" lon="5.88111">
        <ele>402.69</ele>
        <time>2020-01-05T10:15:30Z</time>
      </trkpt>
      <trkpt lat="43.53362" lon="5.88137">
        <ele>401.28</ele>
        <time>2020-01-05T10:15:33Z</time>
      </trkpt>
      <trkpt lat="43.53359" lon="5.88164">
        <ele>399.71</ele>
        <time>2020-01-05T10:15:36Z</time>
      </trkpt>
      <trkpt lat="43.5336" lon="5.88196">
        <ele>396.37</ele>
        <time>2020-01-05T10:15:40Z</time>
      </trkpt>
      <trkpt lat="43.53366" lon="5.88228">
        <ele>393</ele>
        <time>2020-01-05T10:15:44Z</time>
      </trkpt>
      <trkpt lat="43.53365" lon="5.88255">
        <ele>390.47</ele>
        <time>2020-01-05T10:15:47Z</time>
      </trkpt>
      <trkpt lat="43.53361" lon="5.88284">
        <ele>387.87</ele>
        <time>2020-01-05T10:15:50Z</time>
      </trkpt>
      <trkpt lat="43.53357" lon="5.88311">
        <ele>385.47</ele>
        <time>2020-01-05T10:15:53Z</time>
      </trkpt>
      <trkpt lat="43.53355" lon="5.88339">
        <ele>382.42</ele>
        <time>2020-01-05T10:15:56Z</time>
      </trkpt>
      <trkpt lat="43.53352" lon="5.88368">
        <ele>379.67</ele>
        <time>2020-01-05T10:15:59Z</time>
      </trkpt>
      <trkpt lat="43.53349" lon="5.88394">
        <ele>377.45</ele>
        <time>2020-01-05T10:16:02Z</time>
      </trkpt>
      <trkpt lat="43.53349" lon="5.88427">
        <ele>375.04</ele>
        <time>2020-01-05T10:16:06Z</time>
      </trkpt>
      <trkpt lat="43.53344" lon="5.88453">
        <ele>372.92</ele>
        <time>2020-01-05T10:16:09Z</time>
      </trkpt>
      <trkpt lat="43.53335" lon="5.88478">
        <ele>371.2</ele>
        <time>2020-01-05T10:16:12Z</time>
      </trkpt>
      <trkpt lat="43.53322" lon="5.88497">
        <ele>369.52</ele>
        <time>2020-01-05T10:16:15Z</time>
      </trkpt>
      <trkpt lat="43.53309" lon="5.8852">
        <ele>367.8</ele>
        <time>2020-01-05T10:16:18Z</time>
      </trkpt>
      <trkpt lat="43.53299" lon="5.88544">
        <ele>366.19</ele>
        <time>2020-01-05T10:16:21Z</time>
      </trkpt>
      <trkpt lat="43.53285" lon="5.88568">
        <ele>364.85</ele>
        <time>2020-01-05T10:16:24Z</time>
      </trkpt>
      <trkpt lat="43.53277" lon="5.88598">
        <ele>363</ele>
        <time>2020-01-05T10:16:28Z</time>
      </trkpt>
      <trkpt lat="43.53279" lon="5.88624">
        <ele>360.78</ele>
        <time>2020-01-05T10:16:31Z</time>
      </trkpt>
      <trkpt lat="43.53286" lon="5.88647">
        <ele>358.64</ele>
        <time>2020-01-05T10:16:34Z</time>
      </trkpt>
      <trkpt lat="43.53283" lon="5.88675">
        <ele>362.99</ele>
        <time>2020-01-05T10:18:59Z</time>
      </trkpt>
      <trkpt lat="43.53284" lon="5.88701">
        <ele>364.24</ele>
        <time>2020-01-05T10:19:05Z</time>
      </trkpt>
      <trkpt lat="43.53279" lon="5.88726">
        <ele>366.19</ele>
        <time>2020-01-05T10:19:12Z</time>
      </trkpt>
      <trkpt lat="43.53264" lon="5.88743">
        <ele>366.12</ele>
        <time>2020-01-05T10:19:19Z</time>
      </trkpt>
      <trkpt lat="43.53249" lon="5.88756">
        <ele>366.8</ele>
        <time>2020-01-05T10:19:26Z</time>
      </trkpt>
      <trkpt lat="43.5325" lon="5.88781">
        <ele>369.42</ele>
        <time>2020-01-05T10:19:36Z</time>
      </trkpt>
      <trkpt lat="43.53267" lon="5.88793">
        <ele>372.76</ele>
        <time>2020-01-05T10:19:46Z</time>
      </trkpt>
      <trkpt lat="43.53286" lon="5.88804">
        <ele>376.72</ele>
        <time>2020-01-05T10:19:54Z</time>
      </trkpt>
      <trkpt lat="43.53305" lon="5.88814">
        <ele>380.21</ele>
        <time>2020-01-05T10:20:01Z</time>
      </trkpt>
      <trkpt lat="43.5332" lon="5.88833">
        <ele>382.18</ele>
        <time>2020-01-05T10:20:07Z</time>
      </trkpt>
      <trkpt lat="43.5333" lon="5.88858">
        <ele>382.75</ele>
        <time>2020-01-05T10:20:12Z</time>
      </trkpt>
      <trkpt lat="43.53335" lon="5.88884">
        <ele>379.66</ele>
        <time>2020-01-05T10:20:16Z</time>
      </trkpt>
      <trkpt lat="43.53339" lon="5.88909">
        <ele>377.34</ele>
        <time>2020-01-05T10:20:21Z</time>
      </trkpt>
      <trkpt lat="43.53339" lon="5.88936">
        <ele>375.54</ele>
        <time>2020-01-05T10:20:27Z</time>
      </trkpt>
      <trkpt lat="43.53338" lon="5.88962">
        <ele>373.52</ele>
        <time>2020-01-05T10:20:33Z</time>
      </trkpt>
      <trkpt lat="43.53332" lon="5.88987">
        <ele>372.21</ele>
        <time>2020-01-05T10:20:40Z</time>
      </trkpt>
      <trkpt lat="43.53331" lon="5.89012">
        <ele>371.31</ele>
        <time>2020-01-05T10:20:47Z</time>
      </trkpt>
      <trkpt lat="43.53329" lon="5.89037">
        <ele>369.77</ele>
        <time>2020-01-05T10:20:55Z</time>
      </trkpt>
      <trkpt lat="43.53331" lon="5.89063">
        <ele>369.29</ele>
        <time>2020-01-05T10:21:05Z</time>
      </trkpt>
      <trkpt lat="43.53349" lon="5.89072">
        <ele>370.4</ele>
        <time>2020-01-05T10:21:12Z</time>
      </trkpt>
      <trkpt lat="43.53369" lon="5.89065">
        <ele>372.15</ele>
        <time>2020-01-05T10:21:18Z</time>
      </trkpt>
      <trkpt lat="43.5339" lon="5.89068">
        <ele>376.42</ele>
        <time>2020-01-05T10:21:23Z</time>
      </trkpt>
      <trkpt lat="43.53411" lon="5.89071">
        <ele>376.23</ele>
        <time>2020-01-05T10:21:27Z</time>
      </trkpt>
      <trkpt lat="43.53431" lon="5.89078">
        <ele>373.86</ele>
        <time>2020-01-05T10:21:31Z</time>
      </trkpt>
      <trkpt lat="43.53449" lon="5.89082">
        <ele>369.5</ele>
        <time>2020-01-05T10:21:37Z</time>
      </trkpt>
      <trkpt lat="43.53449" lon="5.89107">
        <ele>359.45</ele>
        <time>2020-01-05T10:21:51Z</time>
      </trkpt>
      <trkpt lat="43.53432" lon="5.89123">
        <ele>358</ele>
        <time>2020-01-05T10:21:58Z</time>
      </trkpt>
      <trkpt lat="43.53414" lon="5.89141">
        <ele>357.69</ele>
        <time>2020-01-05T10:22:04Z</time>
      </trkpt>
      <trkpt lat="43.53397" lon="5.89157">
        <ele>357.49</ele>
        <time>2020-01-05T10:22:09Z</time>
      </trkpt>
      <trkpt lat="43.53379" lon="5.89172">
        <ele>356.74</ele>
        <time>2020-01-05T10:22:14Z</time>
      </trkpt>
      <trkpt lat="43.53363" lon="5.89186">
        <ele>355.8</ele>
        <time>2020-01-05T10:22:18Z</time>
      </trkpt>
      <trkpt lat="43.53346" lon="5.892">
        <ele>354.72</ele>
        <time>2020-01-05T10:22:22Z</time>
      </trkpt>
      <trkpt lat="43.53327" lon="5.89216">
        <ele>353.25</ele>
        <time>2020-01-05T10:22:26Z</time>
      </trkpt>
      <trkpt lat="43.53308" lon="5.89231">
        <ele>351.88</ele>
        <time>2020-01-05T10:22:30Z</time>
      </trkpt>
      <trkpt lat="43.53291" lon="5.89249">
        <ele>350.27</ele>
        <time>2020-01-05T10:22:34Z</time>
      </trkpt>
      <trkpt lat="43.53272" lon="5.89264">
        <ele>349.24</ele>
        <time>2020-01-05T10:22:38Z</time>
      </trkpt>
      <trkpt lat="43.53253" lon="5.89279">
        <ele>348.34</ele>
        <time>2020-01-05T10:22:42Z</time>
      </trkpt>
      <trkpt lat="43.53234" lon="5.89294">
        <ele>347.34</ele>
        <time>2020-01-05T10:22:46Z</time>
      </trkpt>
      <trkpt lat="43.53216" lon="5.89308">
        <ele>346.63</ele>
        <time>2020-01-05T10:22:50Z</time>
      </trkpt>
      <trkpt lat="43.53197" lon="5.89319">
        <ele>344.6</ele>
        <time>2020-01-05T10:22:54Z</time>
      </trkpt>
      <trkpt lat="43.53178" lon="5.89329">
        <ele>343.23</ele>
        <time>2020-01-05T10:22:58Z</time>
      </trkpt>
      <trkpt lat="43.53155" lon="5.89339">
        <ele>342.69</ele>
        <time>2020-01-05T10:23:02Z</time>
      </trkpt>
      <trkpt lat="43.53137" lon="5.89353">
        <ele>342.75</ele>
        <time>2020-01-05T10:23:06Z</time>
      </trkpt>
      <trkpt lat="43.5312" lon="5.89368">
        <ele>343.14</ele>
        <time>2020-01-05T10:23:11Z</time>
      </trkpt>
      <trkpt lat="43.53104" lon="5.89387">
        <ele>343.36</ele>
        <time>2020-01-05T10:23:15Z</time>
      </trkpt>
      <trkpt lat="43.53085" lon="5.89403">
        <ele>343.62</ele>
        <time>2020-01-05T10:23:19Z</time>
      </trkpt>
      <trkpt lat="43.53066" lon="5.8942">
        <ele>344</ele>
        <time>2020-01-05T10:23:23Z</time>
      </trkpt>
      <trkpt lat="43.53047" lon="5.89438">
        <ele>343.29</ele>
        <time>2020-01-05T10:23:27Z</time>
      </trkpt>
      <trkpt lat="43.53027" lon="5.89451">
        <ele>340.98</ele>
        <time>2020-01-05T10:23:31Z</time>
      </trkpt>
      <trkpt lat="43.53008" lon="5.89465">
        <ele>338.22</ele>
        <time>2020-01-05T10:23:35Z</time>
      </trkpt>
      <trkpt lat="43.52987" lon="5.89476">
        <ele>336.23</ele>
        <time>2020-01-05T10:23:39Z</time>
      </trkpt>
      <trkpt lat="43.52966" lon="5.89487">
        <ele>334.17</ele>
        <time>2020-01-05T10:23:43Z</time>
      </trkpt>
      <trkpt lat="43.52945" lon="5.89499">
        <ele>332.76</ele>
        <time>2020-01-05T10:23:47Z</time>
      </trkpt>
      <trkpt lat="43.52923" lon="5.89508">
        <ele>330.6</ele>
        <time>2020-01-05T10:23:51Z</time>
      </trkpt>
      <trkpt lat="43.52902" lon="5.89517">
        <ele>328.4</ele>
        <time>2020-01-05T10:23:55Z</time>
      </trkpt>
      <trkpt lat="43.52883" lon="5.89525">
        <ele>325.98</ele>
        <time>2020-01-05T10:23:59Z</time>
      </trkpt>
      <trkpt lat="43.52864" lon="5.89536">
        <ele>324.11</ele>
        <time>2020-01-05T10:24:04Z</time>
      </trkpt>
      <trkpt lat="43.52845" lon="5.89546">
        <ele>323.95</ele>
        <time>2020-01-05T10:24:09Z</time>
      </trkpt>
      <trkpt lat="43.52826" lon="5.89556">
        <ele>324.72</ele>
        <time>2020-01-05T10:24:16Z</time>
      </trkpt>
      <trkpt lat="43.52808" lon="5.89563">
        <ele>325.5</ele>
        <time>2020-01-05T10:24:23Z</time>
      </trkpt>
      <trkpt lat="43.5279" lon="5.89571">
        <ele>325.53</ele>
        <time>2020-01-05T10:24:29Z</time>
      </trkpt>
      <trkpt lat="43.52769" lon="5.89572">
        <ele>326.7</ele>
        <time>2020-01-05T10:24:34Z</time>
      </trkpt>
      <trkpt lat="43.5275" lon="5.89572">
        <ele>327.34</ele>
        <time>2020-01-05T10:24:38Z</time>
      </trkpt>
      <trkpt lat="43.52732" lon="5.89571">
        <ele>327.74</ele>
        <time>2020-01-05T10:24:42Z</time>
      </trkpt>
      <trkpt lat="43.52712" lon="5.89568">
        <ele>328.32</ele>
        <time>2020-01-05T10:24:47Z</time>
      </trkpt>
      <trkpt lat="43.52693" lon="5.89566">
        <ele>329.42</ele>
        <time>2020-01-05T10:24:52Z</time>
      </trkpt>
      <trkpt lat="43.52673" lon="5.89566">
        <ele>330.81</ele>
        <time>2020-01-05T10:24:57Z</time>
      </trkpt>
      <trkpt lat="43.52653" lon="5.89566">
        <ele>331.64</ele>
        <time>2020-01-05T10:25:02Z</time>
      </trkpt>
      <trkpt lat="43.52634" lon="5.89567">
        <ele>332.62</ele>
        <time>2020-01-05T10:25:07Z</time>
      </trkpt>
      <trkpt lat="43.52613" lon="5.89567">
        <ele>333.84</ele>
        <time>2020-01-05T10:25:13Z</time>
      </trkpt>
      <trkpt lat="43.52595" lon="5.89565">
        <ele>334.55</ele>
        <time>2020-01-05T10:25:18Z</time>
      </trkpt>
      <trkpt lat="43.52574" lon="5.89563">
        <ele>334.86</ele>
        <time>2020-01-05T10:25:24Z</time>
      </trkpt>
      <trkpt lat="43.52556" lon="5.89561">
        <ele>335.17</ele>
        <time>2020-01-05T10:25:29Z</time>
      </trkpt>
      <trkpt lat="43.52535" lon="5.89561">
        <ele>335.66</ele>
        <time>2020-01-05T10:25:35Z</time>
      </trkpt>
      <trkpt lat="43.52517" lon="5.89561">
        <ele>336.06</ele>
        <time>2020-01-05T10:25:40Z</time>
      </trkpt>
      <trkpt lat="43.52497" lon="5.89561">
        <ele>336.08</ele>
        <time>2020-01-05T10:25:45Z</time>
      </trkpt>
      <trkpt lat="43.52479" lon="5.89561">
        <ele>336.44</ele>
        <time>2020-01-05T10:25:50Z</time>
      </trkpt>
      <trkpt lat="43.5246" lon="5.89561">
        <ele>336.92</ele>
        <time>2020-01-05T10:25:55Z</time>
      </trkpt>
      <trkpt lat="43.52438" lon="5.8956">
        <ele>336.32</ele>
        <time>2020-01-05T10:26:01Z</time>
      </trkpt>
      <trkpt lat="43.52419" lon="5.89557">
        <ele>335.47</ele>
        <time>2020-01-05T10:26:06Z</time>
      </trkpt>
      <trkpt lat="43.524" lon="5.89555">
        <ele>335.39</ele>
        <time>2020-01-05T10:26:11Z</time>
      </trkpt>
      <trkpt lat="43.52381" lon="5.89553">
        <ele>335.47</ele>
        <time>2020-01-05T10:26:17Z</time>
      </trkpt>
      <trkpt lat="43.52363" lon="5.89552">
        <ele>335.47</ele>
        <time>2020-01-05T10:26:23Z</time>
      </trkpt>
      <trkpt lat="43.52344" lon="5.89557">
        <ele>336.21</ele>
        <time>2020-01-05T10:26:28Z</time>
      </trkpt>
      <trkpt lat="43.52324" lon="5.89558">
        <ele>337.04</ele>
        <time>2020-01-05T10:26:33Z</time>
      </trkpt>
      <trkpt lat="43.52302" lon="5.89556">
        <ele>337.27</ele>
        <time>2020-01-05T10:26:38Z</time>
      </trkpt>
      <trkpt lat="43.52281" lon="5.89555">
        <ele>336.89</ele>
        <time>2020-01-05T10:26:43Z</time>
      </trkpt>
      <trkpt lat="43.52261" lon="5.89557">
        <ele>336.55</ele>
        <time>2020-01-05T10:26:48Z</time>
      </trkpt>
      <trkpt lat="43.52241" lon="5.89563">
        <ele>336.59</ele>
        <time>2020-01-05T10:26:54Z</time>
      </trkpt>
      <trkpt lat="43.52223" lon="5.89569">
        <ele>336.89</ele>
        <time>2020-01-05T10:27:00Z</time>
      </trkpt>
      <trkpt lat="43.52205" lon="5.89577">
        <ele>337.32</ele>
        <time>2020-01-05T10:27:06Z</time>
      </trkpt>
      <trkpt lat="43.52187" lon="5.89588">
        <ele>337.85</ele>
        <time>2020-01-05T10:27:12Z</time>
      </trkpt>
      <trkpt lat="43.5217" lon="5.89598">
        <ele>339.5</ele>
        <time>2020-01-05T10:27:17Z</time>
      </trkpt>
      <trkpt lat="43.52152" lon="5.89605">
        <ele>340.53</ele>
        <time>2020-01-05T10:27:22Z</time>
      </trkpt>
      <trkpt lat="43.52132" lon="5.89612">
        <ele>341.4</ele>
        <time>2020-01-05T10:27:27Z</time>
      </trkpt>
      <trkpt lat="43.52115" lon="5.8962">
        <ele>342.77</ele>
        <time>2020-01-05T10:27:32Z</time>
      </trkpt>
      <trkpt lat="43.52095" lon="5.8963">
        <ele>343.82</ele>
        <time>2020-01-05T10:27:37Z</time>
      </trkpt>
      <trkpt lat="43.52075" lon="5.8964">
        <ele>344.17</ele>
        <time>2020-01-05T10:27:42Z</time>
      </trkpt>
      <trkpt lat="43.52057" lon="5.89647">
        <ele>343.5</ele>
        <time>2020-01-05T10:27:46Z</time>
      </trkpt>
      <trkpt lat="43.52038" lon="5.89652">
        <ele>342.85</ele>
        <time>2020-01-05T10:27:50Z</time>
      </trkpt>
      <trkpt lat="43.52019" lon="5.89658">
        <ele>343.01</ele>
        <time>2020-01-05T10:27:54Z</time>
      </trkpt>
      <trkpt lat="43.52001" lon="5.89665">
        <ele>343.55</ele>
        <time>2020-01-05T10:27:58Z</time>
      </trkpt>
      <trkpt lat="43.51982" lon="5.89672">
        <ele>344.41</ele>
        <time>2020-01-05T10:28:02Z</time>
      </trkpt>
      <trkpt lat="43.51963" lon="5.8968">
        <ele>345.43</ele>
        <time>2020-01-05T10:28:06Z</time>
      </trkpt>
      <trkpt lat="43.51943" lon="5.89687">
        <ele>345.05</ele>
        <time>2020-01-05T10:28:10Z</time>
      </trkpt>
      <trkpt lat="43.51922" lon="5.89696">
        <ele>345.15</ele>
        <time>2020-01-05T10:28:15Z</time>
      </trkpt>
      <trkpt lat="43.51904" lon="5.897">
        <ele>345.21</ele>
        <time>2020-01-05T10:28:19Z</time>
      </trkpt>
      <trkpt lat="43.51882" lon="5.89702">
        <ele>344.42</ele>
        <time>2020-01-05T10:28:24Z</time>
      </trkpt>
      <trkpt lat="43.51861" lon="5.89705">
        <ele>343.28</ele>
        <time>2020-01-05T10:28:29Z</time>
      </trkpt>
      <trkpt lat="43.51841" lon="5.89708">
        <ele>342.07</ele>
        <time>2020-01-05T10:28:34Z</time>
      </trkpt>
      <trkpt lat="43.51822" lon="5.89709">
        <ele>341.47</ele>
        <time>2020-01-05T10:28:39Z</time>
      </trkpt>
      <trkpt lat="43.51804" lon="5.89709">
        <ele>342.15</ele>
        <time>2020-01-05T10:28:44Z</time>
      </trkpt>
      <trkpt lat="43.51786" lon="5.89709">
        <ele>342.54</ele>
        <time>2020-01-05T10:28:49Z</time>
      </trkpt>
      <trkpt lat="43.51767" lon="5.89705">
        <ele>343.46</ele>
        <time>2020-01-05T10:28:56Z</time>
      </trkpt>
      <trkpt lat="43.51748" lon="5.89695">
        <ele>345.62</ele>
        <time>2020-01-05T10:29:03Z</time>
      </trkpt>
      <trkpt lat="43.51729" lon="5.89685">
        <ele>347.12</ele>
        <time>2020-01-05T10:29:10Z</time>
      </trkpt>
      <trkpt lat="43.51709" lon="5.89681">
        <ele>348.52</ele>
        <time>2020-01-05T10:29:16Z</time>
      </trkpt>
      <trkpt lat="43.5169" lon="5.89678">
        <ele>350.42</ele>
        <time>2020-01-05T10:29:22Z</time>
      </trkpt>
      <trkpt lat="43.51669" lon="5.89672">
        <ele>352.21</ele>
        <time>2020-01-05T10:29:28Z</time>
      </trkpt>
      <trkpt lat="43.51648" lon="5.89667">
        <ele>354.19</ele>
        <time>2020-01-05T10:29:34Z</time>
      </trkpt>
      <trkpt lat="43.51629" lon="5.89662">
        <ele>355.35</ele>
        <time>2020-01-05T10:29:40Z</time>
      </trkpt>
      <trkpt lat="43.51609" lon="5.89659">
        <ele>356.21</ele>
        <time>2020-01-05T10:29:46Z</time>
      </trkpt>
      <trkpt lat="43.51591" lon="5.8965">
        <ele>354.53</ele>
        <time>2020-01-05T10:29:54Z</time>
      </trkpt>
      <trkpt lat="43.51592" lon="5.89623">
        <ele>354.07</ele>
        <time>2020-01-05T10:30:06Z</time>
      </trkpt>
      <trkpt lat="43.51579" lon="5.89603">
        <ele>356.09</ele>
        <time>2020-01-05T10:30:14Z</time>
      </trkpt>
      <trkpt lat="43.51565" lon="5.89585">
        <ele>358.77</ele>
        <time>2020-01-05T10:30:22Z</time>
      </trkpt>
      <trkpt lat="43.51555" lon="5.89564">
        <ele>361.51</ele>
        <time>2020-01-05T10:30:30Z</time>
      </trkpt>
      <trkpt lat="43.51542" lon="5.89547">
        <ele>364.49</ele>
        <time>2020-01-05T10:30:38Z</time>
      </trkpt>
      <trkpt lat="43.51523" lon="5.89538">
        <ele>368.46</ele>
        <time>2020-01-05T10:30:47Z</time>
      </trkpt>
      <trkpt lat="43.51507" lon="5.89526">
        <ele>371.63</ele>
        <time>2020-01-05T10:30:54Z</time>
      </trkpt>
      <trkpt lat="43.51489" lon="5.89519">
        <ele>375.24</ele>
        <time>2020-01-05T10:31:02Z</time>
      </trkpt>
      <trkpt lat="43.5147" lon="5.89512">
        <ele>377.85</ele>
        <time>2020-01-05T10:31:11Z</time>
      </trkpt>
      <trkpt lat="43.51453" lon="5.89502">
        <ele>380.02</ele>
        <time>2020-01-05T10:31:19Z</time>
      </trkpt>
      <trkpt lat="43.51436" lon="5.89492">
        <ele>380.09</ele>
        <time>2020-01-05T10:31:27Z</time>
      </trkpt>
      <trkpt lat="43.51418" lon="5.89481">
        <ele>380.01</ele>
        <time>2020-01-05T10:31:35Z</time>
      </trkpt>
      <trkpt lat="43.51402" lon="5.89465">
        <ele>379.08</ele>
        <time>2020-01-05T10:31:44Z</time>
      </trkpt>
      <trkpt lat="43.51385" lon="5.89452">
        <ele>379.04</ele>
        <time>2020-01-05T10:31:54Z</time>
      </trkpt>
      <trkpt lat="43.51368" lon="5.89445">
        <ele>382.49</ele>
        <time>2020-01-05T10:32:04Z</time>
      </trkpt>
      <trkpt lat="43.51349" lon="5.89445">
        <ele>387.34</ele>
        <time>2020-01-05T10:32:14Z</time>
      </trkpt>
      <trkpt lat="43.51331" lon="5.89443">
        <ele>390.93</ele>
        <time>2020-01-05T10:32:22Z</time>
      </trkpt>
      <trkpt lat="43.51311" lon="5.8944">
        <ele>394.55</ele>
        <time>2020-01-05T10:32:30Z</time>
      </trkpt>
      <trkpt lat="43.51295" lon="5.89427">
        <ele>396.88</ele>
        <time>2020-01-05T10:32:36Z</time>
      </trkpt>
      <trkpt lat="43.51279" lon="5.89414">
        <ele>398.02</ele>
        <time>2020-01-05T10:32:42Z</time>
      </trkpt>
      <trkpt lat="43.51269" lon="5.89393">
        <ele>396.19</ele>
        <time>2020-01-05T10:32:47Z</time>
      </trkpt>
      <trkpt lat="43.51251" lon="5.8938">
        <ele>394.43</ele>
        <time>2020-01-05T10:32:51Z</time>
      </trkpt>
      <trkpt lat="43.51232" lon="5.89363">
        <ele>393</ele>
        <time>2020-01-05T10:32:55Z</time>
      </trkpt>
      <trkpt lat="43.51219" lon="5.89344">
        <ele>391.86</ele>
        <time>2020-01-05T10:32:59Z</time>
      </trkpt>
      <trkpt lat="43.51201" lon="5.89326">
        <ele>390.65</ele>
        <time>2020-01-05T10:33:03Z</time>
      </trkpt>
      <trkpt lat="43.51183" lon="5.89316">
        <ele>390.39</ele>
        <time>2020-01-05T10:33:07Z</time>
      </trkpt>
      <trkpt lat="43.51164" lon="5.89313">
        <ele>390.74</ele>
        <time>2020-01-05T10:33:11Z</time>
      </trkpt>
      <trkpt lat="43.51145" lon="5.89308">
        <ele>390.95</ele>
        <time>2020-01-05T10:33:15Z</time>
      </trkpt>
      <trkpt lat="43.51127" lon="5.89303">
        <ele>391.42</ele>
        <time>2020-01-05T10:33:19Z</time>
      </trkpt>
      <trkpt lat="43.51109" lon="5.89296">
        <ele>391.66</ele>
        <time>2020-01-05T10:33:24Z</time>
      </trkpt>
      <trkpt lat="43.51091" lon="5.89293">
        <ele>391.39</ele>
        <time>2020-01-05T10:33:29Z</time>
      </trkpt>
      <trkpt lat="43.51072" lon="5.89292">
        <ele>391.73</ele>
        <time>2020-01-05T10:33:40Z</time>
      </trkpt>
      <trkpt lat="43.51052" lon="5.8929">
        <ele>392.82</ele>
        <time>2020-01-05T10:33:49Z</time>
      </trkpt>
      <trkpt lat="43.51034" lon="5.89283">
        <ele>394.2</ele>
        <time>2020-01-05T10:33:55Z</time>
      </trkpt>
      <trkpt lat="43.51014" lon="5.89271">
        <ele>395.99</ele>
        <time>2020-01-05T10:34:02Z</time>
      </trkpt>
      <trkpt lat="43.50996" lon="5.89262">
        <ele>397.27</ele>
        <time>2020-01-05T10:34:07Z</time>
      </trkpt>
      <trkpt lat="43.50976" lon="5.89252">
        <ele>399.27</ele>
        <time>2020-01-05T10:34:12Z</time>
      </trkpt>
      <trkpt lat="43.50955" lon="5.89244">
        <ele>401.07</ele>
        <time>2020-01-05T10:34:17Z</time>
      </trkpt>
      <trkpt lat="43.50936" lon="5.89235">
        <ele>402.47</ele>
        <time>2020-01-05T10:34:21Z</time>
      </trkpt>
      <trkpt lat="43.50918" lon="5.89228">
        <ele>402.71</ele>
        <time>2020-01-05T10:34:24Z</time>
      </trkpt>
      <trkpt lat="43.50901" lon="5.89217">
        <ele>402.59</ele>
        <time>2020-01-05T10:34:27Z</time>
      </trkpt>
      <trkpt lat="43.50883" lon="5.89212">
        <ele>402.36</ele>
        <time>2020-01-05T10:34:31Z</time>
      </trkpt>
      <trkpt lat="43.50863" lon="5.89208">
        <ele>399.24</ele>
        <time>2020-01-05T10:34:35Z</time>
      </trkpt>
      <trkpt lat="43.50844" lon="5.89196">
        <ele>394.79</ele>
        <time>2020-01-05T10:34:39Z</time>
      </trkpt>
      <trkpt lat="43.50824" lon="5.89186">
        <ele>388.11</ele>
        <time>2020-01-05T10:34:43Z</time>
      </trkpt>
      <trkpt lat="43.50808" lon="5.89164">
        <ele>381.34</ele>
        <time>2020-01-05T10:34:47Z</time>
      </trkpt>
      <trkpt lat="43.50792" lon="5.89145">
        <ele>373.65</ele>
        <time>2020-01-05T10:34:53Z</time>
      </trkpt>
      <trkpt lat="43.50774" lon="5.89137">
        <ele>368.22</ele>
        <time>2020-01-05T10:34:57Z</time>
      </trkpt>
      <trkpt lat="43.50754" lon="5.89126">
        <ele>362.8</ele>
        <time>2020-01-05T10:35:02Z</time>
      </trkpt>
      <trkpt lat="43.50734" lon="5.89126">
        <ele>357.25</ele>
        <time>2020-01-05T10:35:08Z</time>
      </trkpt>
      <trkpt lat="43.50715" lon="5.8913">
        <ele>353.15</ele>
        <time>2020-01-05T10:35:13Z</time>
      </trkpt>
      <trkpt lat="43.50696" lon="5.89124">
        <ele>346.41</ele>
        <time>2020-01-05T10:35:19Z</time>
      </trkpt>
      <trkpt lat="43.50675" lon="5.89122">
        <ele>339.42</ele>
        <time>2020-01-05T10:35:26Z</time>
      </trkpt>
      <trkpt lat="43.50656" lon="5.89112">
        <ele>332.06</ele>
        <time>2020-01-05T10:35:31Z</time>
      </trkpt>
      <trkpt lat="43.50638" lon="5.89105">
        <ele>324.7</ele>
        <time>2020-01-05T10:35:37Z</time>
      </trkpt>
      <trkpt lat="43.50621" lon="5.89096">
        <ele>317.86</ele>
        <time>2020-01-05T10:35:42Z</time>
      </trkpt>
      <trkpt lat="43.50603" lon="5.89089">
        <ele>312.71</ele>
        <time>2020-01-05T10:35:47Z</time>
      </trkpt>
      <trkpt lat="43.50584" lon="5.89079">
        <ele>306.93</ele>
        <time>2020-01-05T10:35:53Z</time>
      </trkpt>
      <trkpt lat="43.50566" lon="5.89069">
        <ele>301.88</ele>
        <time>2020-01-05T10:35:58Z</time>
      </trkpt>
      <trkpt lat="43.50551" lon="5.89048">
        <ele>296.77</ele>
        <time>2020-01-05T10:36:03Z</time>
      </trkpt>
      <trkpt lat="43.50541" lon="5.89026">
        <ele>292.46</ele>
        <time>2020-01-05T10:36:09Z</time>
      </trkpt>
      <trkpt lat="43.50533" lon="5.89002">
        <ele>288.11</ele>
        <time>2020-01-05T10:36:15Z</time>
      </trkpt>
      <trkpt lat="43.50519" lon="5.88984">
        <ele>285.39</ele>
        <time>2020-01-05T10:36:20Z</time>
      </trkpt>
      <trkpt lat="43.50501" lon="5.8897">
        <ele>283.39</ele>
        <time>2020-01-05T10:36:24Z</time>
      </trkpt>
      <trkpt lat="43.50483" lon="5.88959">
        <ele>281.67</ele>
        <time>2020-01-05T10:36:28Z</time>
      </trkpt>
      <trkpt lat="43.50465" lon="5.88946">
        <ele>279.62</ele>
        <time>2020-01-05T10:36:32Z</time>
      </trkpt>
      <trkpt lat="43.50444" lon="5.88931">
        <ele>276.72</ele>
        <time>2020-01-05T10:36:37Z</time>
      </trkpt>
      <trkpt lat="43.50429" lon="5.88917">
        <ele>275.27</ele>
        <time>2020-01-05T10:36:40Z</time>
      </trkpt>
      <trkpt lat="43.50416" lon="5.88899">
        <ele>273.52</ele>
        <time>2020-01-05T10:36:43Z</time>
      </trkpt>
      <trkpt lat="43.50406" lon="5.88875">
        <ele>271.2</ele>
        <time>2020-01-05T10:36:47Z</time>
      </trkpt>
      <trkpt lat="43.50393" lon="5.88855">
        <ele>269.28</ele>
        <time>2020-01-05T10:36:51Z</time>
      </trkpt>
      <trkpt lat="43.50381" lon="5.88829">
        <ele>267.51</ele>
        <time>2020-01-05T10:36:55Z</time>
      </trkpt>
      <trkpt lat="43.50379" lon="5.88804">
        <ele>265.45</ele>
        <time>2020-01-05T10:36:59Z</time>
      </trkpt>
      <trkpt lat="43.50378" lon="5.88779">
        <ele>260.29</ele>
        <time>2020-01-05T10:37:11Z</time>
      </trkpt>
      <trkpt lat="43.50387" lon="5.88753">
        <ele>257.56</ele>
        <time>2020-01-05T10:37:18Z</time>
      </trkpt>
      <trkpt lat="43.50376" lon="5.88729">
        <ele>256.37</ele>
        <time>2020-01-05T10:37:24Z</time>
      </trkpt>
      <trkpt lat="43.50363" lon="5.8871">
        <ele>255.7</ele>
        <time>2020-01-05T10:37:32Z</time>
      </trkpt>
    </trkseg>
  </trk>
</gpx>